<?xml version="1.0" encoding="UTF-8" standalone="no" ?>
<gpx xmlns="http://www.topografix.com/GPX/1/1" xmlns:xsi="http://www.w3.org/2001/XMLSchema-instance" xsi:schemaLocation="http://www.topografix.com/GPX/1/1 http://www.topografix.com/GPX/1/1/gpx.xsd" version="1.1" creator="VisuGPX - https://www.visugpx.com">
  <metadata>
    <name>Promenade dans le bois d'eaunes </name>
    <desc><![CDATA[circuit en vtt le 01/11/2008]]></desc>
  </metadata>
  <trk>
    <name><![CDATA[ACTIVE LOG 021]]></name>
    <trkseg>
      <trkpt lat="43.48445" lon="1.40135">
        <ele>233.25708</ele>
        <time>2008-11-01T14:47:06Z</time>
      </trkpt>
      <trkpt lat="43.4844" lon="1.40155">
        <ele>228.450439</ele>
        <time>2008-11-01T14:47:09Z</time>
      </trkpt>
      <trkpt lat="43.48427" lon="1.40156">
        <ele>224.605225</ele>
        <time>2008-11-01T14:47:11Z</time>
      </trkpt>
      <trkpt lat="43.48417" lon="1.40155">
        <ele>220.279175</ele>
        <time>2008-11-01T14:47:13Z</time>
      </trkpt>
      <trkpt lat="43.48413" lon="1.40154">
        <ele>217.875977</ele>
        <time>2008-11-01T14:47:14Z</time>
      </trkpt>
      <trkpt lat="43.48396" lon="1.40146">
        <ele>210.666016</ele>
        <time>2008-11-01T14:47:18Z</time>
      </trkpt>
      <trkpt lat="43.48391" lon="1.40144">
        <ele>207.782104</ele>
        <time>2008-11-01T14:47:20Z</time>
      </trkpt>
      <trkpt lat="43.48391" lon="1.40144">
        <ele>202.975464</ele>
        <time>2008-11-01T14:47:23Z</time>
      </trkpt>
      <trkpt lat="43.48365" lon="1.40106">
        <ele>199.130127</ele>
        <time>2008-11-01T14:47:25Z</time>
      </trkpt>
      <trkpt lat="43.48365" lon="1.40103">
        <ele>195.284912</ele>
        <time>2008-11-01T14:47:29Z</time>
      </trkpt>
      <trkpt lat="43.48362" lon="1.40088">
        <ele>191.920288</ele>
        <time>2008-11-01T14:47:32Z</time>
      </trkpt>
      <trkpt lat="43.48352" lon="1.40065">
        <ele>188.555786</ele>
        <time>2008-11-01T14:47:35Z</time>
      </trkpt>
      <trkpt lat="43.48352" lon="1.40065">
        <ele>187.11377</ele>
        <time>2008-11-01T14:47:36Z</time>
      </trkpt>
      <trkpt lat="43.48352" lon="1.40065">
        <ele>185.191162</ele>
        <time>2008-11-01T14:47:38Z</time>
      </trkpt>
      <trkpt lat="43.48111" lon="1.39965">
        <ele>175.577881</ele>
        <time>2008-11-01T14:48:17Z</time>
      </trkpt>
      <trkpt lat="43.48011" lon="1.39876">
        <ele>159.716187</ele>
        <time>2008-11-01T14:48:38Z</time>
      </trkpt>
      <trkpt lat="43.48015" lon="1.3988">
        <ele>160.196899</ele>
        <time>2008-11-01T14:48:43Z</time>
      </trkpt>
      <trkpt lat="43.4803" lon="1.39891">
        <ele>160.196899</ele>
        <time>2008-11-01T14:48:46Z</time>
      </trkpt>
      <trkpt lat="43.48063" lon="1.39863">
        <ele>159.716187</ele>
        <time>2008-11-01T14:48:51Z</time>
      </trkpt>
      <trkpt lat="43.48136" lon="1.39833">
        <ele>159.235474</ele>
        <time>2008-11-01T14:49:03Z</time>
      </trkpt>
      <trkpt lat="43.48163" lon="1.39812">
        <ele>159.235474</ele>
        <time>2008-11-01T14:49:08Z</time>
      </trkpt>
      <trkpt lat="43.48168" lon="1.39804">
        <ele>160.67749</ele>
        <time>2008-11-01T14:49:10Z</time>
      </trkpt>
      <trkpt lat="43.48171" lon="1.39798">
        <ele>161.158203</ele>
        <time>2008-11-01T14:49:21Z</time>
      </trkpt>
      <trkpt lat="43.48182" lon="1.39774">
        <ele>161.158203</ele>
        <time>2008-11-01T14:49:46Z</time>
      </trkpt>
      <trkpt lat="43.48205" lon="1.3973">
        <ele>160.67749</ele>
        <time>2008-11-01T14:49:57Z</time>
      </trkpt>
      <trkpt lat="43.48214" lon="1.3971">
        <ele>159.716187</ele>
        <time>2008-11-01T14:50:01Z</time>
      </trkpt>
      <trkpt lat="43.48217" lon="1.39692">
        <ele>160.67749</ele>
        <time>2008-11-01T14:50:04Z</time>
      </trkpt>
      <trkpt lat="43.48204" lon="1.3964">
        <ele>160.67749</ele>
        <time>2008-11-01T14:50:13Z</time>
      </trkpt>
      <trkpt lat="43.48121" lon="1.39563">
        <ele>161.158203</ele>
        <time>2008-11-01T14:50:34Z</time>
      </trkpt>
      <trkpt lat="43.48071" lon="1.395">
        <ele>161.638916</ele>
        <time>2008-11-01T14:50:48Z</time>
      </trkpt>
      <trkpt lat="43.48013" lon="1.39373">
        <ele>162.119507</ele>
        <time>2008-11-01T14:51:09Z</time>
      </trkpt>
      <trkpt lat="43.47941" lon="1.39219">
        <ele>164.522705</ele>
        <time>2008-11-01T14:51:34Z</time>
      </trkpt>
      <trkpt lat="43.47913" lon="1.39154">
        <ele>165.964722</ele>
        <time>2008-11-01T14:51:45Z</time>
      </trkpt>
      <trkpt lat="43.47895" lon="1.39067">
        <ele>165.484131</ele>
        <time>2008-11-01T14:51:58Z</time>
      </trkpt>
      <trkpt lat="43.47877" lon="1.38954">
        <ele>165.964722</ele>
        <time>2008-11-01T14:52:14Z</time>
      </trkpt>
      <trkpt lat="43.47825" lon="1.3883">
        <ele>166.926025</ele>
        <time>2008-11-01T14:52:34Z</time>
      </trkpt>
      <trkpt lat="43.47787" lon="1.38745">
        <ele>166.926025</ele>
        <time>2008-11-01T14:52:48Z</time>
      </trkpt>
      <trkpt lat="43.47766" lon="1.38714">
        <ele>167.887329</ele>
        <time>2008-11-01T14:52:56Z</time>
      </trkpt>
      <trkpt lat="43.47729" lon="1.38663">
        <ele>169.329468</ele>
        <time>2008-11-01T14:53:11Z</time>
      </trkpt>
      <trkpt lat="43.47722" lon="1.38654">
        <ele>169.810059</ele>
        <time>2008-11-01T14:53:17Z</time>
      </trkpt>
      <trkpt lat="43.47722" lon="1.38654">
        <ele>169.810059</ele>
        <time>2008-11-01T14:53:20Z</time>
      </trkpt>
      <trkpt lat="43.47722" lon="1.38654">
        <ele>169.329468</ele>
        <time>2008-11-01T14:53:23Z</time>
      </trkpt>
      <trkpt lat="43.47724" lon="1.38656">
        <ele>169.810059</ele>
        <time>2008-11-01T14:53:32Z</time>
      </trkpt>
      <trkpt lat="43.47705" lon="1.38622">
        <ele>170.290649</ele>
        <time>2008-11-01T14:53:46Z</time>
      </trkpt>
      <trkpt lat="43.47695" lon="1.38567">
        <ele>170.771362</ele>
        <time>2008-11-01T14:54:00Z</time>
      </trkpt>
      <trkpt lat="43.47699" lon="1.38456">
        <ele>170.771362</ele>
        <time>2008-11-01T14:54:18Z</time>
      </trkpt>
      <trkpt lat="43.47727" lon="1.38319">
        <ele>170.290649</ele>
        <time>2008-11-01T14:54:42Z</time>
      </trkpt>
      <trkpt lat="43.47747" lon="1.38232">
        <ele>171.252075</ele>
        <time>2008-11-01T14:55:03Z</time>
      </trkpt>
      <trkpt lat="43.47747" lon="1.38232">
        <ele>171.252075</ele>
        <time>2008-11-01T14:55:04Z</time>
      </trkpt>
      <trkpt lat="43.47723" lon="1.38184">
        <ele>170.771362</ele>
        <time>2008-11-01T14:55:14Z</time>
      </trkpt>
      <trkpt lat="43.47633" lon="1.38098">
        <ele>170.290649</ele>
        <time>2008-11-01T14:55:35Z</time>
      </trkpt>
      <trkpt lat="43.47582" lon="1.38047">
        <ele>169.810059</ele>
        <time>2008-11-01T14:55:47Z</time>
      </trkpt>
      <trkpt lat="43.47533" lon="1.38028">
        <ele>169.810059</ele>
        <time>2008-11-01T14:55:56Z</time>
      </trkpt>
      <trkpt lat="43.47428" lon="1.38025">
        <ele>170.771362</ele>
        <time>2008-11-01T14:56:16Z</time>
      </trkpt>
      <trkpt lat="43.47324" lon="1.38037">
        <ele>170.290649</ele>
        <time>2008-11-01T14:56:35Z</time>
      </trkpt>
      <trkpt lat="43.47296" lon="1.38033">
        <ele>169.810059</ele>
        <time>2008-11-01T14:56:40Z</time>
      </trkpt>
      <trkpt lat="43.47193" lon="1.37991">
        <ele>172.213257</ele>
        <time>2008-11-01T14:57:01Z</time>
      </trkpt>
      <trkpt lat="43.47151" lon="1.37974">
        <ele>171.252075</ele>
        <time>2008-11-01T14:57:10Z</time>
      </trkpt>
      <trkpt lat="43.47137" lon="1.37971">
        <ele>172.69397</ele>
        <time>2008-11-01T14:57:13Z</time>
      </trkpt>
      <trkpt lat="43.47097" lon="1.37982">
        <ele>172.69397</ele>
        <time>2008-11-01T14:57:22Z</time>
      </trkpt>
      <trkpt lat="43.47082" lon="1.37986">
        <ele>171.252075</ele>
        <time>2008-11-01T14:57:25Z</time>
      </trkpt>
      <trkpt lat="43.47049" lon="1.37974">
        <ele>170.290649</ele>
        <time>2008-11-01T14:57:32Z</time>
      </trkpt>
      <trkpt lat="43.47045" lon="1.3797">
        <ele>170.771362</ele>
        <time>2008-11-01T14:57:33Z</time>
      </trkpt>
      <trkpt lat="43.46973" lon="1.37895">
        <ele>172.213257</ele>
        <time>2008-11-01T14:57:52Z</time>
      </trkpt>
      <trkpt lat="43.46899" lon="1.37841">
        <ele>172.213257</ele>
        <time>2008-11-01T14:58:10Z</time>
      </trkpt>
      <trkpt lat="43.46808" lon="1.37798">
        <ele>171.732666</ele>
        <time>2008-11-01T14:58:30Z</time>
      </trkpt>
      <trkpt lat="43.46754" lon="1.37771">
        <ele>172.213257</ele>
        <time>2008-11-01T14:58:43Z</time>
      </trkpt>
      <trkpt lat="43.46714" lon="1.37714">
        <ele>171.252075</ele>
        <time>2008-11-01T14:58:55Z</time>
      </trkpt>
      <trkpt lat="43.46667" lon="1.37604">
        <ele>172.213257</ele>
        <time>2008-11-01T14:59:15Z</time>
      </trkpt>
      <trkpt lat="43.46665" lon="1.37599">
        <ele>172.213257</ele>
        <time>2008-11-01T14:59:16Z</time>
      </trkpt>
      <trkpt lat="43.46651" lon="1.37571">
        <ele>172.213257</ele>
        <time>2008-11-01T14:59:21Z</time>
      </trkpt>
      <trkpt lat="43.46642" lon="1.37554">
        <ele>171.732666</ele>
        <time>2008-11-01T14:59:25Z</time>
      </trkpt>
      <trkpt lat="43.46638" lon="1.37547">
        <ele>171.732666</ele>
        <time>2008-11-01T14:59:27Z</time>
      </trkpt>
      <trkpt lat="43.46628" lon="1.3753">
        <ele>172.69397</ele>
        <time>2008-11-01T14:59:31Z</time>
      </trkpt>
      <trkpt lat="43.46547" lon="1.37475">
        <ele>173.174683</ele>
        <time>2008-11-01T14:59:51Z</time>
      </trkpt>
      <trkpt lat="43.46412" lon="1.37433">
        <ele>173.174683</ele>
        <time>2008-11-01T15:00:17Z</time>
      </trkpt>
      <trkpt lat="43.46322" lon="1.37405">
        <ele>173.174683</ele>
        <time>2008-11-01T15:00:33Z</time>
      </trkpt>
      <trkpt lat="43.46203" lon="1.37366">
        <ele>173.174683</ele>
        <time>2008-11-01T15:00:55Z</time>
      </trkpt>
      <trkpt lat="43.46085" lon="1.37327">
        <ele>174.135864</ele>
        <time>2008-11-01T15:01:17Z</time>
      </trkpt>
      <trkpt lat="43.45968" lon="1.37289">
        <ele>175.577881</ele>
        <time>2008-11-01T15:01:40Z</time>
      </trkpt>
      <trkpt lat="43.45936" lon="1.37277">
        <ele>175.577881</ele>
        <time>2008-11-01T15:01:52Z</time>
      </trkpt>
      <trkpt lat="43.45842" lon="1.37243">
        <ele>175.09729</ele>
        <time>2008-11-01T15:02:13Z</time>
      </trkpt>
      <trkpt lat="43.45722" lon="1.37193">
        <ele>176.058594</ele>
        <time>2008-11-01T15:02:38Z</time>
      </trkpt>
      <trkpt lat="43.45636" lon="1.3716">
        <ele>176.539307</ele>
        <time>2008-11-01T15:02:55Z</time>
      </trkpt>
      <trkpt lat="43.45545" lon="1.37127">
        <ele>176.058594</ele>
        <time>2008-11-01T15:03:12Z</time>
      </trkpt>
      <trkpt lat="43.45498" lon="1.37109">
        <ele>177.50061</ele>
        <time>2008-11-01T15:03:21Z</time>
      </trkpt>
      <trkpt lat="43.45395" lon="1.3709">
        <ele>176.539307</ele>
        <time>2008-11-01T15:03:39Z</time>
      </trkpt>
      <trkpt lat="43.45311" lon="1.37109">
        <ele>176.058594</ele>
        <time>2008-11-01T15:03:53Z</time>
      </trkpt>
      <trkpt lat="43.45299" lon="1.3711">
        <ele>176.539307</ele>
        <time>2008-11-01T15:03:55Z</time>
      </trkpt>
      <trkpt lat="43.45277" lon="1.37103">
        <ele>176.539307</ele>
        <time>2008-11-01T15:03:59Z</time>
      </trkpt>
      <trkpt lat="43.45185" lon="1.37051">
        <ele>178.461914</ele>
        <time>2008-11-01T15:04:19Z</time>
      </trkpt>
      <trkpt lat="43.45098" lon="1.36993">
        <ele>181.345825</ele>
        <time>2008-11-01T15:04:39Z</time>
      </trkpt>
      <trkpt lat="43.4503" lon="1.36959">
        <ele>180.865234</ele>
        <time>2008-11-01T15:04:52Z</time>
      </trkpt>
      <trkpt lat="43.44904" lon="1.36838">
        <ele>180.865234</ele>
        <time>2008-11-01T15:05:16Z</time>
      </trkpt>
      <trkpt lat="43.44824" lon="1.36757">
        <ele>180.865234</ele>
        <time>2008-11-01T15:05:34Z</time>
      </trkpt>
      <trkpt lat="43.44737" lon="1.36635">
        <ele>181.345825</ele>
        <time>2008-11-01T15:05:56Z</time>
      </trkpt>
      <trkpt lat="43.44646" lon="1.36581">
        <ele>181.345825</ele>
        <time>2008-11-01T15:06:14Z</time>
      </trkpt>
      <trkpt lat="43.44557" lon="1.36548">
        <ele>185.671753</ele>
        <time>2008-11-01T15:06:31Z</time>
      </trkpt>
      <trkpt lat="43.44551" lon="1.36546">
        <ele>182.787842</ele>
        <time>2008-11-01T15:06:32Z</time>
      </trkpt>
      <trkpt lat="43.44457" lon="1.36505">
        <ele>183.749023</ele>
        <time>2008-11-01T15:06:50Z</time>
      </trkpt>
      <trkpt lat="43.44441" lon="1.36496">
        <ele>182.307129</ele>
        <time>2008-11-01T15:06:53Z</time>
      </trkpt>
      <trkpt lat="43.44315" lon="1.36451">
        <ele>182.787842</ele>
        <time>2008-11-01T15:07:16Z</time>
      </trkpt>
      <trkpt lat="43.4415" lon="1.36412">
        <ele>184.710571</ele>
        <time>2008-11-01T15:07:46Z</time>
      </trkpt>
      <trkpt lat="43.44113" lon="1.36404">
        <ele>185.671753</ele>
        <time>2008-11-01T15:07:53Z</time>
      </trkpt>
      <trkpt lat="43.44051" lon="1.36388">
        <ele>188.555786</ele>
        <time>2008-11-01T15:08:10Z</time>
      </trkpt>
      <trkpt lat="43.44028" lon="1.36381">
        <ele>191.920288</ele>
        <time>2008-11-01T15:08:18Z</time>
      </trkpt>
      <trkpt lat="43.43975" lon="1.36368">
        <ele>193.843018</ele>
        <time>2008-11-01T15:08:36Z</time>
      </trkpt>
      <trkpt lat="43.43952" lon="1.36362">
        <ele>197.20752</ele>
        <time>2008-11-01T15:08:44Z</time>
      </trkpt>
      <trkpt lat="43.43949" lon="1.36362">
        <ele>197.20752</ele>
        <time>2008-11-01T15:08:45Z</time>
      </trkpt>
      <trkpt lat="43.43925" lon="1.36356">
        <ele>199.61084</ele>
        <time>2008-11-01T15:08:53Z</time>
      </trkpt>
      <trkpt lat="43.43894" lon="1.36348">
        <ele>202.975464</ele>
        <time>2008-11-01T15:09:03Z</time>
      </trkpt>
      <trkpt lat="43.4386" lon="1.36338">
        <ele>206.820679</ele>
        <time>2008-11-01T15:09:15Z</time>
      </trkpt>
      <trkpt lat="43.43856" lon="1.36337">
        <ele>206.820679</ele>
        <time>2008-11-01T15:09:16Z</time>
      </trkpt>
      <trkpt lat="43.43828" lon="1.3633">
        <ele>210.185425</ele>
        <time>2008-11-01T15:09:24Z</time>
      </trkpt>
      <trkpt lat="43.43763" lon="1.36314">
        <ele>210.185425</ele>
        <time>2008-11-01T15:09:41Z</time>
      </trkpt>
      <trkpt lat="43.43682" lon="1.36292">
        <ele>209.704834</ele>
        <time>2008-11-01T15:10:03Z</time>
      </trkpt>
      <trkpt lat="43.43626" lon="1.36277">
        <ele>209.704834</ele>
        <time>2008-11-01T15:10:20Z</time>
      </trkpt>
      <trkpt lat="43.43538" lon="1.36253">
        <ele>209.224121</ele>
        <time>2008-11-01T15:10:41Z</time>
      </trkpt>
      <trkpt lat="43.43421" lon="1.36222">
        <ele>208.262817</ele>
        <time>2008-11-01T15:11:09Z</time>
      </trkpt>
      <trkpt lat="43.43329" lon="1.36174">
        <ele>210.185425</ele>
        <time>2008-11-01T15:11:33Z</time>
      </trkpt>
      <trkpt lat="43.43264" lon="1.36108">
        <ele>209.704834</ele>
        <time>2008-11-01T15:11:52Z</time>
      </trkpt>
      <trkpt lat="43.43197" lon="1.36028">
        <ele>209.704834</ele>
        <time>2008-11-01T15:12:12Z</time>
      </trkpt>
      <trkpt lat="43.43115" lon="1.3595">
        <ele>210.185425</ele>
        <time>2008-11-01T15:12:34Z</time>
      </trkpt>
      <trkpt lat="43.4304" lon="1.3587">
        <ele>209.704834</ele>
        <time>2008-11-01T15:12:55Z</time>
      </trkpt>
      <trkpt lat="43.42965" lon="1.35781">
        <ele>209.704834</ele>
        <time>2008-11-01T15:13:16Z</time>
      </trkpt>
      <trkpt lat="43.42928" lon="1.35691">
        <ele>209.224121</ele>
        <time>2008-11-01T15:13:33Z</time>
      </trkpt>
      <trkpt lat="43.42884" lon="1.35579">
        <ele>212.588623</ele>
        <time>2008-11-01T15:13:56Z</time>
      </trkpt>
      <trkpt lat="43.42831" lon="1.35468">
        <ele>214.51123</ele>
        <time>2008-11-01T15:14:20Z</time>
      </trkpt>
      <trkpt lat="43.42812" lon="1.35423">
        <ele>214.991943</ele>
        <time>2008-11-01T15:14:31Z</time>
      </trkpt>
      <trkpt lat="43.42802" lon="1.35404">
        <ele>214.51123</ele>
        <time>2008-11-01T15:14:35Z</time>
      </trkpt>
      <trkpt lat="43.42801" lon="1.35402">
        <ele>214.51123</ele>
        <time>2008-11-01T15:14:39Z</time>
      </trkpt>
      <trkpt lat="43.42784" lon="1.35357">
        <ele>214.51123</ele>
        <time>2008-11-01T15:14:44Z</time>
      </trkpt>
      <trkpt lat="43.42773" lon="1.35338">
        <ele>214.991943</ele>
        <time>2008-11-01T15:14:48Z</time>
      </trkpt>
      <trkpt lat="43.42708" lon="1.35224">
        <ele>214.51123</ele>
        <time>2008-11-01T15:15:11Z</time>
      </trkpt>
      <trkpt lat="43.4267" lon="1.35155">
        <ele>215.472656</ele>
        <time>2008-11-01T15:15:25Z</time>
      </trkpt>
      <trkpt lat="43.42669" lon="1.35127">
        <ele>215.472656</ele>
        <time>2008-11-01T15:15:30Z</time>
      </trkpt>
      <trkpt lat="43.42673" lon="1.35084">
        <ele>214.991943</ele>
        <time>2008-11-01T15:15:37Z</time>
      </trkpt>
      <trkpt lat="43.42685" lon="1.34945">
        <ele>215.472656</ele>
        <time>2008-11-01T15:16:00Z</time>
      </trkpt>
      <trkpt lat="43.42699" lon="1.34818">
        <ele>215.953247</ele>
        <time>2008-11-01T15:16:22Z</time>
      </trkpt>
      <trkpt lat="43.42702" lon="1.34787">
        <ele>216.43396</ele>
        <time>2008-11-01T15:16:28Z</time>
      </trkpt>
      <trkpt lat="43.42702" lon="1.34782">
        <ele>216.914673</ele>
        <time>2008-11-01T15:16:36Z</time>
      </trkpt>
      <trkpt lat="43.42702" lon="1.34746">
        <ele>216.914673</ele>
        <time>2008-11-01T15:16:45Z</time>
      </trkpt>
      <trkpt lat="43.42702" lon="1.34782">
        <ele>216.914673</ele>
        <time>2008-11-01T15:16:49Z</time>
      </trkpt>
      <trkpt lat="43.4271" lon="1.34772">
        <ele>216.43396</ele>
        <time>2008-11-01T15:16:59Z</time>
      </trkpt>
      <trkpt lat="43.42587" lon="1.34823">
        <ele>216.43396</ele>
        <time>2008-11-01T15:17:28Z</time>
      </trkpt>
      <trkpt lat="43.42497" lon="1.3485">
        <ele>216.914673</ele>
        <time>2008-11-01T15:17:51Z</time>
      </trkpt>
      <trkpt lat="43.42493" lon="1.34849">
        <ele>216.43396</ele>
        <time>2008-11-01T15:17:52Z</time>
      </trkpt>
      <trkpt lat="43.42481" lon="1.34847">
        <ele>218.356567</ele>
        <time>2008-11-01T15:17:55Z</time>
      </trkpt>
      <trkpt lat="43.42477" lon="1.34846">
        <ele>216.914673</ele>
        <time>2008-11-01T15:17:56Z</time>
      </trkpt>
      <trkpt lat="43.42368" lon="1.34823">
        <ele>219.317993</ele>
        <time>2008-11-01T15:18:22Z</time>
      </trkpt>
      <trkpt lat="43.42265" lon="1.34813">
        <ele>220.279175</ele>
        <time>2008-11-01T15:18:46Z</time>
      </trkpt>
      <trkpt lat="43.42231" lon="1.34817">
        <ele>217.395386</ele>
        <time>2008-11-01T15:18:54Z</time>
      </trkpt>
      <trkpt lat="43.42217" lon="1.3482">
        <ele>215.953247</ele>
        <time>2008-11-01T15:18:57Z</time>
      </trkpt>
      <trkpt lat="43.42189" lon="1.34824">
        <ele>214.03064</ele>
        <time>2008-11-01T15:19:01Z</time>
      </trkpt>
      <trkpt lat="43.4218" lon="1.34826">
        <ele>213.069336</ele>
        <time>2008-11-01T15:19:02Z</time>
      </trkpt>
      <trkpt lat="43.42145" lon="1.34831">
        <ele>209.224121</ele>
        <time>2008-11-01T15:19:06Z</time>
      </trkpt>
      <trkpt lat="43.42128" lon="1.34835">
        <ele>209.704834</ele>
        <time>2008-11-01T15:19:08Z</time>
      </trkpt>
      <trkpt lat="43.4208" lon="1.34855">
        <ele>209.224121</ele>
        <time>2008-11-01T15:19:14Z</time>
      </trkpt>
      <trkpt lat="43.42062" lon="1.34864">
        <ele>213.069336</ele>
        <time>2008-11-01T15:19:18Z</time>
      </trkpt>
      <trkpt lat="43.42054" lon="1.34846">
        <ele>212.588623</ele>
        <time>2008-11-01T15:19:19Z</time>
      </trkpt>
      <trkpt lat="43.42063" lon="1.34863">
        <ele>211.627441</ele>
        <time>2008-11-01T15:19:27Z</time>
      </trkpt>
      <trkpt lat="43.42054" lon="1.34843">
        <ele>212.108032</ele>
        <time>2008-11-01T15:19:28Z</time>
      </trkpt>
      <trkpt lat="43.42039" lon="1.34876">
        <ele>211.146729</ele>
        <time>2008-11-01T15:19:35Z</time>
      </trkpt>
      <trkpt lat="43.41996" lon="1.34919">
        <ele>212.588623</ele>
        <time>2008-11-01T15:19:49Z</time>
      </trkpt>
      <trkpt lat="43.41959" lon="1.34964">
        <ele>215.953247</ele>
        <time>2008-11-01T15:20:02Z</time>
      </trkpt>
      <trkpt lat="43.41888" lon="1.35052">
        <ele>214.991943</ele>
        <time>2008-11-01T15:20:25Z</time>
      </trkpt>
      <trkpt lat="43.41846" lon="1.35105">
        <ele>216.914673</ele>
        <time>2008-11-01T15:20:39Z</time>
      </trkpt>
      <trkpt lat="43.41839" lon="1.35066">
        <ele>217.875977</ele>
        <time>2008-11-01T15:20:49Z</time>
      </trkpt>
      <trkpt lat="43.41838" lon="1.34982">
        <ele>219.798584</ele>
        <time>2008-11-01T15:21:10Z</time>
      </trkpt>
      <trkpt lat="43.41847" lon="1.34954">
        <ele>221.240601</ele>
        <time>2008-11-01T15:21:23Z</time>
      </trkpt>
      <trkpt lat="43.41848" lon="1.34927">
        <ele>224.124512</ele>
        <time>2008-11-01T15:21:34Z</time>
      </trkpt>
      <trkpt lat="43.41848" lon="1.34916">
        <ele>226.047119</ele>
        <time>2008-11-01T15:21:38Z</time>
      </trkpt>
      <trkpt lat="43.4183" lon="1.34885">
        <ele>229.411743</ele>
        <time>2008-11-01T15:21:54Z</time>
      </trkpt>
      <trkpt lat="43.41809" lon="1.34853">
        <ele>232.776489</ele>
        <time>2008-11-01T15:22:12Z</time>
      </trkpt>
      <trkpt lat="43.41799" lon="1.34836">
        <ele>236.140991</ele>
        <time>2008-11-01T15:22:23Z</time>
      </trkpt>
      <trkpt lat="43.41787" lon="1.34816">
        <ele>239.505493</ele>
        <time>2008-11-01T15:22:35Z</time>
      </trkpt>
      <trkpt lat="43.41787" lon="1.34814">
        <ele>239.986206</ele>
        <time>2008-11-01T15:22:36Z</time>
      </trkpt>
      <trkpt lat="43.4177" lon="1.34786">
        <ele>242.870239</ele>
        <time>2008-11-01T15:22:55Z</time>
      </trkpt>
      <trkpt lat="43.41759" lon="1.34773">
        <ele>244.792847</ele>
        <time>2008-11-01T15:23:05Z</time>
      </trkpt>
      <trkpt lat="43.41734" lon="1.34752">
        <ele>247.676758</ele>
        <time>2008-11-01T15:23:23Z</time>
      </trkpt>
      <trkpt lat="43.41699" lon="1.34729">
        <ele>251.041382</ele>
        <time>2008-11-01T15:23:41Z</time>
      </trkpt>
      <trkpt lat="43.41691" lon="1.34724">
        <ele>251.041382</ele>
        <time>2008-11-01T15:23:47Z</time>
      </trkpt>
      <trkpt lat="43.41687" lon="1.34745">
        <ele>250.0802</ele>
        <time>2008-11-01T15:24:05Z</time>
      </trkpt>
      <trkpt lat="43.41662" lon="1.34808">
        <ele>247.196045</ele>
        <time>2008-11-01T15:24:18Z</time>
      </trkpt>
      <trkpt lat="43.41648" lon="1.34837">
        <ele>245.75415</ele>
        <time>2008-11-01T15:24:23Z</time>
      </trkpt>
      <trkpt lat="43.41632" lon="1.34863">
        <ele>246.234863</ele>
        <time>2008-11-01T15:24:27Z</time>
      </trkpt>
      <trkpt lat="43.41624" lon="1.34873">
        <ele>245.75415</ele>
        <time>2008-11-01T15:24:29Z</time>
      </trkpt>
      <trkpt lat="43.41611" lon="1.34888">
        <ele>240.947632</ele>
        <time>2008-11-01T15:24:32Z</time>
      </trkpt>
      <trkpt lat="43.41577" lon="1.34922">
        <ele>239.024902</ele>
        <time>2008-11-01T15:24:38Z</time>
      </trkpt>
      <trkpt lat="43.41563" lon="1.34931">
        <ele>243.831543</ele>
        <time>2008-11-01T15:24:41Z</time>
      </trkpt>
      <trkpt lat="43.41556" lon="1.34933">
        <ele>245.75415</ele>
        <time>2008-11-01T15:24:44Z</time>
      </trkpt>
      <trkpt lat="43.41524" lon="1.34943">
        <ele>249.118774</ele>
        <time>2008-11-01T15:25:05Z</time>
      </trkpt>
      <trkpt lat="43.41493" lon="1.34959">
        <ele>251.522095</ele>
        <time>2008-11-01T15:25:25Z</time>
      </trkpt>
      <trkpt lat="43.41463" lon="1.34968">
        <ele>254.406006</ele>
        <time>2008-11-01T15:25:41Z</time>
      </trkpt>
      <trkpt lat="43.41437" lon="1.34978">
        <ele>257.770752</ele>
        <time>2008-11-01T15:25:57Z</time>
      </trkpt>
      <trkpt lat="43.41412" lon="1.34983">
        <ele>261.135254</ele>
        <time>2008-11-01T15:26:12Z</time>
      </trkpt>
      <trkpt lat="43.41379" lon="1.34974">
        <ele>262.096558</ele>
        <time>2008-11-01T15:26:31Z</time>
      </trkpt>
      <trkpt lat="43.41349" lon="1.34956">
        <ele>264.499878</ele>
        <time>2008-11-01T15:26:52Z</time>
      </trkpt>
      <trkpt lat="43.41316" lon="1.34964">
        <ele>262.096558</ele>
        <time>2008-11-01T15:27:09Z</time>
      </trkpt>
      <trkpt lat="43.41311" lon="1.34966">
        <ele>261.135254</ele>
        <time>2008-11-01T15:27:11Z</time>
      </trkpt>
      <trkpt lat="43.41303" lon="1.34947">
        <ele>261.615967</ele>
        <time>2008-11-01T15:27:15Z</time>
      </trkpt>
      <trkpt lat="43.41296" lon="1.34927">
        <ele>258.731934</ele>
        <time>2008-11-01T15:27:19Z</time>
      </trkpt>
      <trkpt lat="43.4129" lon="1.34919">
        <ele>257.770752</ele>
        <time>2008-11-01T15:27:21Z</time>
      </trkpt>
      <trkpt lat="43.41279" lon="1.34906">
        <ele>256.328735</ele>
        <time>2008-11-01T15:27:24Z</time>
      </trkpt>
      <trkpt lat="43.41259" lon="1.34872">
        <ele>254.406006</ele>
        <time>2008-11-01T15:27:31Z</time>
      </trkpt>
      <trkpt lat="43.41248" lon="1.34788">
        <ele>257.290039</ele>
        <time>2008-11-01T15:27:47Z</time>
      </trkpt>
      <trkpt lat="43.4126" lon="1.34775">
        <ele>258.731934</ele>
        <time>2008-11-01T15:27:54Z</time>
      </trkpt>
      <trkpt lat="43.41261" lon="1.34769">
        <ele>258.251343</ele>
        <time>2008-11-01T15:27:56Z</time>
      </trkpt>
      <trkpt lat="43.41267" lon="1.347">
        <ele>259.693359</ele>
        <time>2008-11-01T15:28:19Z</time>
      </trkpt>
      <trkpt lat="43.41268" lon="1.34648">
        <ele>262.577148</ele>
        <time>2008-11-01T15:28:31Z</time>
      </trkpt>
      <trkpt lat="43.41273" lon="1.34587">
        <ele>265.941895</ele>
        <time>2008-11-01T15:28:50Z</time>
      </trkpt>
      <trkpt lat="43.41288" lon="1.34565">
        <ele>269.306519</ele>
        <time>2008-11-01T15:29:04Z</time>
      </trkpt>
      <trkpt lat="43.41294" lon="1.34557">
        <ele>270.748413</ele>
        <time>2008-11-01T15:29:09Z</time>
      </trkpt>
      <trkpt lat="43.41308" lon="1.34544">
        <ele>274.113037</ele>
        <time>2008-11-01T15:29:20Z</time>
      </trkpt>
      <trkpt lat="43.41344" lon="1.34531">
        <ele>276.516357</ele>
        <time>2008-11-01T15:29:43Z</time>
      </trkpt>
      <trkpt lat="43.41359" lon="1.34522">
        <ele>275.555054</ele>
        <time>2008-11-01T15:29:54Z</time>
      </trkpt>
      <trkpt lat="43.41347" lon="1.34461">
        <ele>274.113037</ele>
        <time>2008-11-01T15:30:12Z</time>
      </trkpt>
      <trkpt lat="43.41307" lon="1.3442">
        <ele>275.555054</ele>
        <time>2008-11-01T15:30:35Z</time>
      </trkpt>
      <trkpt lat="43.41286" lon="1.34401">
        <ele>275.555054</ele>
        <time>2008-11-01T15:30:53Z</time>
      </trkpt>
      <trkpt lat="43.41283" lon="1.34397">
        <ele>275.074463</ele>
        <time>2008-11-01T15:31:50Z</time>
      </trkpt>
      <trkpt lat="43.4128" lon="1.34395">
        <ele>276.035645</ele>
        <time>2008-11-01T15:33:50Z</time>
      </trkpt>
      <trkpt lat="43.41263" lon="1.34378">
        <ele>276.516357</ele>
        <time>2008-11-01T15:34:04Z</time>
      </trkpt>
      <trkpt lat="43.4126" lon="1.34374">
        <ele>276.516357</ele>
        <time>2008-11-01T15:34:15Z</time>
      </trkpt>
      <trkpt lat="43.41275" lon="1.34394">
        <ele>276.035645</ele>
        <time>2008-11-01T15:34:30Z</time>
      </trkpt>
      <trkpt lat="43.41275" lon="1.34395">
        <ele>275.074463</ele>
        <time>2008-11-01T15:34:59Z</time>
      </trkpt>
      <trkpt lat="43.41275" lon="1.34395">
        <ele>275.074463</ele>
        <time>2008-11-01T15:35:16Z</time>
      </trkpt>
      <trkpt lat="43.41275" lon="1.34395">
        <ele>276.035645</ele>
        <time>2008-11-01T15:35:43Z</time>
      </trkpt>
      <trkpt lat="43.41253" lon="1.3437">
        <ele>277.958252</ele>
        <time>2008-11-01T15:36:00Z</time>
      </trkpt>
      <trkpt lat="43.41226" lon="1.34335">
        <ele>278.919678</ele>
        <time>2008-11-01T15:36:20Z</time>
      </trkpt>
      <trkpt lat="43.41189" lon="1.34293">
        <ele>282.284302</ele>
        <time>2008-11-01T15:36:44Z</time>
      </trkpt>
      <trkpt lat="43.41134" lon="1.34271">
        <ele>285.168213</ele>
        <time>2008-11-01T15:37:09Z</time>
      </trkpt>
      <trkpt lat="43.41081" lon="1.3426">
        <ele>285.648804</ele>
        <time>2008-11-01T15:37:33Z</time>
      </trkpt>
      <trkpt lat="43.41033" lon="1.34228">
        <ele>286.129517</ele>
        <time>2008-11-01T15:37:54Z</time>
      </trkpt>
      <trkpt lat="43.40982" lon="1.34172">
        <ele>285.168213</ele>
        <time>2008-11-01T15:38:12Z</time>
      </trkpt>
      <trkpt lat="43.40969" lon="1.341">
        <ele>283.245605</ele>
        <time>2008-11-01T15:38:28Z</time>
      </trkpt>
      <trkpt lat="43.40959" lon="1.34058">
        <ele>282.284302</ele>
        <time>2008-11-01T15:38:37Z</time>
      </trkpt>
      <trkpt lat="43.40938" lon="1.34016">
        <ele>282.284302</ele>
        <time>2008-11-01T15:38:47Z</time>
      </trkpt>
      <trkpt lat="43.40931" lon="1.34003">
        <ele>282.284302</ele>
        <time>2008-11-01T15:38:51Z</time>
      </trkpt>
      <trkpt lat="43.40888" lon="1.33928">
        <ele>284.206909</ele>
        <time>2008-11-01T15:39:13Z</time>
      </trkpt>
      <trkpt lat="43.40845" lon="1.33875">
        <ele>284.687622</ele>
        <time>2008-11-01T15:39:32Z</time>
      </trkpt>
      <trkpt lat="43.40808" lon="1.33867">
        <ele>286.129517</ele>
        <time>2008-11-01T15:39:36Z</time>
      </trkpt>
      <trkpt lat="43.40808" lon="1.33867">
        <ele>286.129517</ele>
        <time>2008-11-01T15:39:38Z</time>
      </trkpt>
      <trkpt lat="43.40806" lon="1.33876">
        <ele>285.168213</ele>
        <time>2008-11-01T15:39:42Z</time>
      </trkpt>
      <trkpt lat="43.40804" lon="1.33884">
        <ele>285.168213</ele>
        <time>2008-11-01T15:39:46Z</time>
      </trkpt>
      <trkpt lat="43.40804" lon="1.33888">
        <ele>285.168213</ele>
        <time>2008-11-01T15:39:48Z</time>
      </trkpt>
      <trkpt lat="43.40802" lon="1.33896">
        <ele>284.687622</ele>
        <time>2008-11-01T15:39:51Z</time>
      </trkpt>
      <trkpt lat="43.40793" lon="1.33938">
        <ele>284.206909</ele>
        <time>2008-11-01T15:40:00Z</time>
      </trkpt>
      <trkpt lat="43.40772" lon="1.34041">
        <ele>281.322998</ele>
        <time>2008-11-01T15:40:20Z</time>
      </trkpt>
      <trkpt lat="43.40766" lon="1.34073">
        <ele>277.477661</ele>
        <time>2008-11-01T15:40:25Z</time>
      </trkpt>
      <trkpt lat="43.40759" lon="1.34107">
        <ele>273.151855</ele>
        <time>2008-11-01T15:40:31Z</time>
      </trkpt>
      <trkpt lat="43.40752" lon="1.34138">
        <ele>270.748413</ele>
        <time>2008-11-01T15:40:36Z</time>
      </trkpt>
      <trkpt lat="43.40807" lon="1.34207">
        <ele>267.864502</ele>
        <time>2008-11-01T15:40:41Z</time>
      </trkpt>
      <trkpt lat="43.4081" lon="1.34207">
        <ele>267.864502</ele>
        <time>2008-11-01T15:40:42Z</time>
      </trkpt>
      <trkpt lat="43.40813" lon="1.34207">
        <ele>267.383911</ele>
        <time>2008-11-01T15:40:49Z</time>
      </trkpt>
      <trkpt lat="43.4082" lon="1.34207">
        <ele>264.980591</ele>
        <time>2008-11-01T15:40:58Z</time>
      </trkpt>
      <trkpt lat="43.40845" lon="1.34217">
        <ele>260.654541</ele>
        <time>2008-11-01T15:41:09Z</time>
      </trkpt>
      <trkpt lat="43.40816" lon="1.34272">
        <ele>252.963989</ele>
        <time>2008-11-01T15:41:16Z</time>
      </trkpt>
      <trkpt lat="43.40786" lon="1.3433">
        <ele>247.196045</ele>
        <time>2008-11-01T15:41:26Z</time>
      </trkpt>
      <trkpt lat="43.4078" lon="1.34334">
        <ele>246.715454</ele>
        <time>2008-11-01T15:41:27Z</time>
      </trkpt>
      <trkpt lat="43.40769" lon="1.34342">
        <ele>246.715454</ele>
        <time>2008-11-01T15:41:32Z</time>
      </trkpt>
      <trkpt lat="43.40769" lon="1.34342">
        <ele>245.75415</ele>
        <time>2008-11-01T15:41:37Z</time>
      </trkpt>
      <trkpt lat="43.40769" lon="1.34342">
        <ele>246.234863</ele>
        <time>2008-11-01T15:41:50Z</time>
      </trkpt>
      <trkpt lat="43.40769" lon="1.34342">
        <ele>246.234863</ele>
        <time>2008-11-01T15:41:59Z</time>
      </trkpt>
      <trkpt lat="43.40643" lon="1.34313">
        <ele>245.273438</ele>
        <time>2008-11-01T15:42:12Z</time>
      </trkpt>
      <trkpt lat="43.40632" lon="1.34312">
        <ele>241.908936</ele>
        <time>2008-11-01T15:42:19Z</time>
      </trkpt>
      <trkpt lat="43.40625" lon="1.34311">
        <ele>239.505493</ele>
        <time>2008-11-01T15:42:24Z</time>
      </trkpt>
      <trkpt lat="43.40597" lon="1.34291">
        <ele>236.621704</ele>
        <time>2008-11-01T15:42:52Z</time>
      </trkpt>
      <trkpt lat="43.40579" lon="1.34276">
        <ele>237.102295</ele>
        <time>2008-11-01T15:43:06Z</time>
      </trkpt>
      <trkpt lat="43.40546" lon="1.34289">
        <ele>240.467041</ele>
        <time>2008-11-01T15:43:29Z</time>
      </trkpt>
      <trkpt lat="43.4052" lon="1.34308">
        <ele>243.831543</ele>
        <time>2008-11-01T15:43:48Z</time>
      </trkpt>
      <trkpt lat="43.4051" lon="1.34314">
        <ele>245.75415</ele>
        <time>2008-11-01T15:43:54Z</time>
      </trkpt>
      <trkpt lat="43.40493" lon="1.34318">
        <ele>248.638184</ele>
        <time>2008-11-01T15:44:06Z</time>
      </trkpt>
      <trkpt lat="43.40475" lon="1.34334">
        <ele>251.522095</ele>
        <time>2008-11-01T15:44:24Z</time>
      </trkpt>
      <trkpt lat="43.40447" lon="1.34342">
        <ele>253.444702</ele>
        <time>2008-11-01T15:44:46Z</time>
      </trkpt>
      <trkpt lat="43.40441" lon="1.3434">
        <ele>255.848022</ele>
        <time>2008-11-01T15:44:52Z</time>
      </trkpt>
      <trkpt lat="43.40422" lon="1.3434">
        <ele>258.731934</ele>
        <time>2008-11-01T15:45:08Z</time>
      </trkpt>
      <trkpt lat="43.40411" lon="1.34346">
        <ele>260.654541</ele>
        <time>2008-11-01T15:45:17Z</time>
      </trkpt>
      <trkpt lat="43.40401" lon="1.34375">
        <ele>264.019287</ele>
        <time>2008-11-01T15:45:39Z</time>
      </trkpt>
      <trkpt lat="43.40401" lon="1.34376">
        <ele>264.019287</ele>
        <time>2008-11-01T15:45:40Z</time>
      </trkpt>
      <trkpt lat="43.40406" lon="1.34402">
        <ele>266.422485</ele>
        <time>2008-11-01T15:45:58Z</time>
      </trkpt>
      <trkpt lat="43.40406" lon="1.34407">
        <ele>266.903198</ele>
        <time>2008-11-01T15:46:02Z</time>
      </trkpt>
      <trkpt lat="43.4041" lon="1.34428">
        <ele>270.2677</ele>
        <time>2008-11-01T15:46:17Z</time>
      </trkpt>
      <trkpt lat="43.40419" lon="1.34456">
        <ele>273.632446</ele>
        <time>2008-11-01T15:46:35Z</time>
      </trkpt>
      <trkpt lat="43.40435" lon="1.34482">
        <ele>276.035645</ele>
        <time>2008-11-01T15:46:55Z</time>
      </trkpt>
      <trkpt lat="43.40457" lon="1.34492">
        <ele>276.035645</ele>
        <time>2008-11-01T15:47:10Z</time>
      </trkpt>
      <trkpt lat="43.40462" lon="1.3451">
        <ele>277.477661</ele>
        <time>2008-11-01T15:47:25Z</time>
      </trkpt>
      <trkpt lat="43.40458" lon="1.34532">
        <ele>280.361694</ele>
        <time>2008-11-01T15:47:53Z</time>
      </trkpt>
      <trkpt lat="43.40456" lon="1.34535">
        <ele>281.322998</ele>
        <time>2008-11-01T15:47:55Z</time>
      </trkpt>
      <trkpt lat="43.4045" lon="1.34539">
        <ele>282.284302</ele>
        <time>2008-11-01T15:48:00Z</time>
      </trkpt>
      <trkpt lat="43.40444" lon="1.3454">
        <ele>282.765015</ele>
        <time>2008-11-01T15:48:05Z</time>
      </trkpt>
      <trkpt lat="43.40436" lon="1.3455">
        <ele>283.726196</ele>
        <time>2008-11-01T15:48:16Z</time>
      </trkpt>
      <trkpt lat="43.40439" lon="1.346">
        <ele>280.842407</ele>
        <time>2008-11-01T15:48:34Z</time>
      </trkpt>
      <trkpt lat="43.4044" lon="1.34612">
        <ele>278.438965</ele>
        <time>2008-11-01T15:48:37Z</time>
      </trkpt>
      <trkpt lat="43.40444" lon="1.34652">
        <ele>275.074463</ele>
        <time>2008-11-01T15:48:45Z</time>
      </trkpt>
      <trkpt lat="43.40412" lon="1.34731">
        <ele>274.113037</ele>
        <time>2008-11-01T15:49:03Z</time>
      </trkpt>
      <trkpt lat="43.40405" lon="1.34747">
        <ele>272.19043</ele>
        <time>2008-11-01T15:49:07Z</time>
      </trkpt>
      <trkpt lat="43.40383" lon="1.34819">
        <ele>275.074463</ele>
        <time>2008-11-01T15:49:24Z</time>
      </trkpt>
      <trkpt lat="43.40335" lon="1.34906">
        <ele>277.477661</ele>
        <time>2008-11-01T15:49:54Z</time>
      </trkpt>
      <trkpt lat="43.40324" lon="1.34911">
        <ele>278.438965</ele>
        <time>2008-11-01T15:49:58Z</time>
      </trkpt>
      <trkpt lat="43.4026" lon="1.34956">
        <ele>276.035645</ele>
        <time>2008-11-01T15:50:21Z</time>
      </trkpt>
      <trkpt lat="43.40247" lon="1.34961">
        <ele>274.113037</ele>
        <time>2008-11-01T15:50:28Z</time>
      </trkpt>
      <trkpt lat="43.40245" lon="1.34966">
        <ele>272.671143</ele>
        <time>2008-11-01T15:50:31Z</time>
      </trkpt>
      <trkpt lat="43.40241" lon="1.34978">
        <ele>269.306519</ele>
        <time>2008-11-01T15:50:42Z</time>
      </trkpt>
      <trkpt lat="43.40241" lon="1.34978">
        <ele>268.825806</ele>
        <time>2008-11-01T15:50:43Z</time>
      </trkpt>
      <trkpt lat="43.40234" lon="1.3499">
        <ele>264.980591</ele>
        <time>2008-11-01T15:50:51Z</time>
      </trkpt>
      <trkpt lat="43.40228" lon="1.34992">
        <ele>263.538574</ele>
        <time>2008-11-01T15:50:54Z</time>
      </trkpt>
      <trkpt lat="43.4022" lon="1.34996">
        <ele>263.057861</ele>
        <time>2008-11-01T15:50:58Z</time>
      </trkpt>
      <trkpt lat="43.40213" lon="1.35014">
        <ele>260.17395</ele>
        <time>2008-11-01T15:51:03Z</time>
      </trkpt>
      <trkpt lat="43.40194" lon="1.35057">
        <ele>264.499878</ele>
        <time>2008-11-01T15:51:20Z</time>
      </trkpt>
      <trkpt lat="43.40194" lon="1.35088">
        <ele>265.461304</ele>
        <time>2008-11-01T15:51:29Z</time>
      </trkpt>
      <trkpt lat="43.40186" lon="1.35107">
        <ele>268.345093</ele>
        <time>2008-11-01T15:51:47Z</time>
      </trkpt>
      <trkpt lat="43.40175" lon="1.35113">
        <ele>271.229126</ele>
        <time>2008-11-01T15:52:04Z</time>
      </trkpt>
      <trkpt lat="43.40174" lon="1.35113">
        <ele>271.709717</ele>
        <time>2008-11-01T15:52:05Z</time>
      </trkpt>
      <trkpt lat="43.40167" lon="1.35116">
        <ele>273.632446</ele>
        <time>2008-11-01T15:52:19Z</time>
      </trkpt>
      <trkpt lat="43.40161" lon="1.35118">
        <ele>276.035645</ele>
        <time>2008-11-01T15:52:25Z</time>
      </trkpt>
      <trkpt lat="43.40154" lon="1.35124">
        <ele>277.958252</ele>
        <time>2008-11-01T15:52:32Z</time>
      </trkpt>
      <trkpt lat="43.40128" lon="1.35155">
        <ele>279.400269</ele>
        <time>2008-11-01T15:52:54Z</time>
      </trkpt>
      <trkpt lat="43.40105" lon="1.35139">
        <ele>281.322998</ele>
        <time>2008-11-01T15:53:13Z</time>
      </trkpt>
      <trkpt lat="43.40082" lon="1.35113">
        <ele>282.765015</ele>
        <time>2008-11-01T15:53:33Z</time>
      </trkpt>
      <trkpt lat="43.40075" lon="1.35111">
        <ele>282.765015</ele>
        <time>2008-11-01T15:53:36Z</time>
      </trkpt>
      <trkpt lat="43.40026" lon="1.35082">
        <ele>276.516357</ele>
        <time>2008-11-01T15:53:53Z</time>
      </trkpt>
      <trkpt lat="43.40013" lon="1.35066">
        <ele>272.671143</ele>
        <time>2008-11-01T15:53:57Z</time>
      </trkpt>
      <trkpt lat="43.40008" lon="1.35057">
        <ele>271.229126</ele>
        <time>2008-11-01T15:53:59Z</time>
      </trkpt>
      <trkpt lat="43.39985" lon="1.34994">
        <ele>268.345093</ele>
        <time>2008-11-01T15:54:12Z</time>
      </trkpt>
      <trkpt lat="43.39971" lon="1.34921">
        <ele>269.306519</ele>
        <time>2008-11-01T15:54:29Z</time>
      </trkpt>
      <trkpt lat="43.39971" lon="1.34903">
        <ele>270.748413</ele>
        <time>2008-11-01T15:54:33Z</time>
      </trkpt>
      <trkpt lat="43.39965" lon="1.34863">
        <ele>273.632446</ele>
        <time>2008-11-01T15:54:43Z</time>
      </trkpt>
      <trkpt lat="43.39963" lon="1.34857">
        <ele>274.59375</ele>
        <time>2008-11-01T15:54:45Z</time>
      </trkpt>
      <trkpt lat="43.39958" lon="1.34821">
        <ele>277.958252</ele>
        <time>2008-11-01T15:55:00Z</time>
      </trkpt>
      <trkpt lat="43.39966" lon="1.3479">
        <ele>280.842407</ele>
        <time>2008-11-01T15:55:12Z</time>
      </trkpt>
      <trkpt lat="43.39974" lon="1.34765">
        <ele>280.842407</ele>
        <time>2008-11-01T15:55:24Z</time>
      </trkpt>
      <trkpt lat="43.3997" lon="1.34747">
        <ele>277.958252</ele>
        <time>2008-11-01T15:55:30Z</time>
      </trkpt>
      <trkpt lat="43.39969" lon="1.34743">
        <ele>277.958252</ele>
        <time>2008-11-01T15:55:31Z</time>
      </trkpt>
      <trkpt lat="43.39988" lon="1.34693">
        <ele>276.99707</ele>
        <time>2008-11-01T15:55:47Z</time>
      </trkpt>
      <trkpt lat="43.39997" lon="1.34673">
        <ele>273.151855</ele>
        <time>2008-11-01T15:55:54Z</time>
      </trkpt>
      <trkpt lat="43.39998" lon="1.34666">
        <ele>272.671143</ele>
        <time>2008-11-01T15:55:56Z</time>
      </trkpt>
      <trkpt lat="43.39997" lon="1.34642">
        <ele>268.825806</ele>
        <time>2008-11-01T15:56:03Z</time>
      </trkpt>
      <trkpt lat="43.39997" lon="1.34638">
        <ele>268.825806</ele>
        <time>2008-11-01T15:56:04Z</time>
      </trkpt>
      <trkpt lat="43.39997" lon="1.34625">
        <ele>266.903198</ele>
        <time>2008-11-01T15:56:08Z</time>
      </trkpt>
      <trkpt lat="43.39998" lon="1.34617">
        <ele>263.538574</ele>
        <time>2008-11-01T15:56:11Z</time>
      </trkpt>
      <trkpt lat="43.39998" lon="1.34581">
        <ele>260.654541</ele>
        <time>2008-11-01T15:56:20Z</time>
      </trkpt>
      <trkpt lat="43.4" lon="1.34566">
        <ele>259.693359</ele>
        <time>2008-11-01T15:56:23Z</time>
      </trkpt>
      <trkpt lat="43.40001" lon="1.34539">
        <ele>255.36731</ele>
        <time>2008-11-01T15:56:28Z</time>
      </trkpt>
      <trkpt lat="43.40002" lon="1.34526">
        <ele>253.925415</ele>
        <time>2008-11-01T15:56:30Z</time>
      </trkpt>
      <trkpt lat="43.39967" lon="1.34406">
        <ele>252.483398</ele>
        <time>2008-11-01T15:56:38Z</time>
      </trkpt>
      <trkpt lat="43.39967" lon="1.34406">
        <ele>254.886597</ele>
        <time>2008-11-01T15:56:41Z</time>
      </trkpt>
      <trkpt lat="43.39967" lon="1.34406">
        <ele>257.290039</ele>
        <time>2008-11-01T15:56:46Z</time>
      </trkpt>
      <trkpt lat="43.39967" lon="1.34406">
        <ele>261.135254</ele>
        <time>2008-11-01T15:56:52Z</time>
      </trkpt>
      <trkpt lat="43.39967" lon="1.34406">
        <ele>261.135254</ele>
        <time>2008-11-01T15:56:53Z</time>
      </trkpt>
      <trkpt lat="43.40017" lon="1.34357">
        <ele>264.019287</ele>
        <time>2008-11-01T15:57:18Z</time>
      </trkpt>
      <trkpt lat="43.40017" lon="1.34357">
        <ele>267.864502</ele>
        <time>2008-11-01T15:57:29Z</time>
      </trkpt>
      <trkpt lat="43.40017" lon="1.34357">
        <ele>267.864502</ele>
        <time>2008-11-01T15:57:34Z</time>
      </trkpt>
      <trkpt lat="43.40038" lon="1.34341">
        <ele>269.306519</ele>
        <time>2008-11-01T15:57:38Z</time>
      </trkpt>
      <trkpt lat="43.40042" lon="1.34337">
        <ele>270.2677</ele>
        <time>2008-11-01T15:57:43Z</time>
      </trkpt>
      <trkpt lat="43.40066" lon="1.34288">
        <ele>271.229126</ele>
        <time>2008-11-01T15:57:52Z</time>
      </trkpt>
      <trkpt lat="43.40062" lon="1.34314">
        <ele>274.113037</ele>
        <time>2008-11-01T15:58:12Z</time>
      </trkpt>
      <trkpt lat="43.40059" lon="1.34278">
        <ele>273.632446</ele>
        <time>2008-11-01T15:58:27Z</time>
      </trkpt>
      <trkpt lat="43.40053" lon="1.34265">
        <ele>274.59375</ele>
        <time>2008-11-01T15:58:40Z</time>
      </trkpt>
      <trkpt lat="43.40023" lon="1.34239">
        <ele>273.632446</ele>
        <time>2008-11-01T15:58:57Z</time>
      </trkpt>
      <trkpt lat="43.39989" lon="1.3422">
        <ele>273.632446</ele>
        <time>2008-11-01T15:59:16Z</time>
      </trkpt>
      <trkpt lat="43.39989" lon="1.3422">
        <ele>274.59375</ele>
        <time>2008-11-01T15:59:24Z</time>
      </trkpt>
      <trkpt lat="43.39982" lon="1.34218">
        <ele>277.477661</ele>
        <time>2008-11-01T15:59:39Z</time>
      </trkpt>
      <trkpt lat="43.39982" lon="1.34218">
        <ele>279.880859</ele>
        <time>2008-11-01T15:59:47Z</time>
      </trkpt>
      <trkpt lat="43.39934" lon="1.3419">
        <ele>282.284302</ele>
        <time>2008-11-01T16:00:03Z</time>
      </trkpt>
      <trkpt lat="43.39958" lon="1.34137">
        <ele>283.726196</ele>
        <time>2008-11-01T16:00:18Z</time>
      </trkpt>
      <trkpt lat="43.39956" lon="1.34091">
        <ele>286.129517</ele>
        <time>2008-11-01T16:00:40Z</time>
      </trkpt>
      <trkpt lat="43.39921" lon="1.34058">
        <ele>288.532959</ele>
        <time>2008-11-01T16:00:57Z</time>
      </trkpt>
      <trkpt lat="43.39909" lon="1.3404">
        <ele>290.936157</ele>
        <time>2008-11-01T16:01:07Z</time>
      </trkpt>
      <trkpt lat="43.39908" lon="1.34038">
        <ele>291.416748</ele>
        <time>2008-11-01T16:01:08Z</time>
      </trkpt>
      <trkpt lat="43.39908" lon="1.3403">
        <ele>291.416748</ele>
        <time>2008-11-01T16:01:25Z</time>
      </trkpt>
      <trkpt lat="43.39904" lon="1.34025">
        <ele>291.897461</ele>
        <time>2008-11-01T16:02:31Z</time>
      </trkpt>
      <trkpt lat="43.39906" lon="1.34024">
        <ele>290.936157</ele>
        <time>2008-11-01T16:03:01Z</time>
      </trkpt>
      <trkpt lat="43.39904" lon="1.34024">
        <ele>290.455566</ele>
        <time>2008-11-01T16:04:06Z</time>
      </trkpt>
      <trkpt lat="43.39905" lon="1.34023">
        <ele>290.455566</ele>
        <time>2008-11-01T16:05:40Z</time>
      </trkpt>
      <trkpt lat="43.39904" lon="1.34023">
        <ele>290.936157</ele>
        <time>2008-11-01T16:06:11Z</time>
      </trkpt>
      <trkpt lat="43.39904" lon="1.34025">
        <ele>290.936157</ele>
        <time>2008-11-01T16:06:55Z</time>
      </trkpt>
      <trkpt lat="43.39903" lon="1.34025">
        <ele>291.416748</ele>
        <time>2008-11-01T16:07:13Z</time>
      </trkpt>
      <trkpt lat="43.39905" lon="1.34025">
        <ele>291.897461</ele>
        <time>2008-11-01T16:08:03Z</time>
      </trkpt>
      <trkpt lat="43.39905" lon="1.34025">
        <ele>290.936157</ele>
        <time>2008-11-01T16:09:08Z</time>
      </trkpt>
      <trkpt lat="43.39909" lon="1.34025">
        <ele>291.416748</ele>
        <time>2008-11-01T16:09:43Z</time>
      </trkpt>
      <trkpt lat="43.39921" lon="1.34018">
        <ele>291.416748</ele>
        <time>2008-11-01T16:09:52Z</time>
      </trkpt>
      <trkpt lat="43.39924" lon="1.34016">
        <ele>291.416748</ele>
        <time>2008-11-01T16:10:01Z</time>
      </trkpt>
      <trkpt lat="43.39954" lon="1.33998">
        <ele>290.936157</ele>
        <time>2008-11-01T16:10:16Z</time>
      </trkpt>
      <trkpt lat="43.39986" lon="1.33987">
        <ele>289.974854</ele>
        <time>2008-11-01T16:10:31Z</time>
      </trkpt>
      <trkpt lat="43.40001" lon="1.3397">
        <ele>290.455566</ele>
        <time>2008-11-01T16:10:37Z</time>
      </trkpt>
      <trkpt lat="43.4003" lon="1.33942">
        <ele>289.494141</ele>
        <time>2008-11-01T16:10:46Z</time>
      </trkpt>
      <trkpt lat="43.40136" lon="1.33862">
        <ele>289.974854</ele>
        <time>2008-11-01T16:11:09Z</time>
      </trkpt>
      <trkpt lat="43.40164" lon="1.33841">
        <ele>291.897461</ele>
        <time>2008-11-01T16:11:16Z</time>
      </trkpt>
      <trkpt lat="43.40172" lon="1.33836">
        <ele>289.494141</ele>
        <time>2008-11-01T16:11:18Z</time>
      </trkpt>
      <trkpt lat="43.40183" lon="1.33797">
        <ele>290.455566</ele>
        <time>2008-11-01T16:11:24Z</time>
      </trkpt>
      <trkpt lat="43.40181" lon="1.33753">
        <ele>290.936157</ele>
        <time>2008-11-01T16:11:30Z</time>
      </trkpt>
      <trkpt lat="43.40181" lon="1.3374">
        <ele>291.897461</ele>
        <time>2008-11-01T16:11:32Z</time>
      </trkpt>
      <trkpt lat="43.4018" lon="1.33728">
        <ele>291.897461</ele>
        <time>2008-11-01T16:11:34Z</time>
      </trkpt>
      <trkpt lat="43.40179" lon="1.33692">
        <ele>292.858765</ele>
        <time>2008-11-01T16:11:47Z</time>
      </trkpt>
      <trkpt lat="43.40179" lon="1.33692">
        <ele>292.378174</ele>
        <time>2008-11-01T16:11:50Z</time>
      </trkpt>
      <trkpt lat="43.4018" lon="1.33701">
        <ele>291.897461</ele>
        <time>2008-11-01T16:11:54Z</time>
      </trkpt>
      <trkpt lat="43.40181" lon="1.33753">
        <ele>290.455566</ele>
        <time>2008-11-01T16:12:11Z</time>
      </trkpt>
      <trkpt lat="43.40181" lon="1.33825">
        <ele>290.936157</ele>
        <time>2008-11-01T16:12:25Z</time>
      </trkpt>
      <trkpt lat="43.40194" lon="1.33829">
        <ele>290.455566</ele>
        <time>2008-11-01T16:12:30Z</time>
      </trkpt>
      <trkpt lat="43.40227" lon="1.33831">
        <ele>289.974854</ele>
        <time>2008-11-01T16:12:39Z</time>
      </trkpt>
      <trkpt lat="43.40251" lon="1.33833">
        <ele>289.494141</ele>
        <time>2008-11-01T16:12:45Z</time>
      </trkpt>
      <trkpt lat="43.40281" lon="1.33843">
        <ele>286.610229</ele>
        <time>2008-11-01T16:12:55Z</time>
      </trkpt>
      <trkpt lat="43.40285" lon="1.33846">
        <ele>286.129517</ele>
        <time>2008-11-01T16:12:56Z</time>
      </trkpt>
      <trkpt lat="43.40301" lon="1.33861">
        <ele>285.648804</ele>
        <time>2008-11-01T16:13:00Z</time>
      </trkpt>
      <trkpt lat="43.40304" lon="1.33887">
        <ele>284.687622</ele>
        <time>2008-11-01T16:13:04Z</time>
      </trkpt>
      <trkpt lat="43.40314" lon="1.33862">
        <ele>280.842407</ele>
        <time>2008-11-01T16:13:07Z</time>
      </trkpt>
      <trkpt lat="43.40322" lon="1.33864">
        <ele>275.555054</ele>
        <time>2008-11-01T16:13:10Z</time>
      </trkpt>
      <trkpt lat="43.4034" lon="1.33862">
        <ele>268.825806</ele>
        <time>2008-11-01T16:13:13Z</time>
      </trkpt>
      <trkpt lat="43.40331" lon="1.33865">
        <ele>267.864502</ele>
        <time>2008-11-01T16:13:15Z</time>
      </trkpt>
      <trkpt lat="43.40406" lon="1.34018">
        <ele>267.383911</ele>
        <time>2008-11-01T16:13:22Z</time>
      </trkpt>
      <trkpt lat="43.40406" lon="1.34018">
        <ele>265.941895</ele>
        <time>2008-11-01T16:13:43Z</time>
      </trkpt>
      <trkpt lat="43.40406" lon="1.34018">
        <ele>264.980591</ele>
        <time>2008-11-01T16:13:53Z</time>
      </trkpt>
      <trkpt lat="43.40406" lon="1.34018">
        <ele>261.615967</ele>
        <time>2008-11-01T16:13:55Z</time>
      </trkpt>
      <trkpt lat="43.40406" lon="1.34018">
        <ele>260.654541</ele>
        <time>2008-11-01T16:13:59Z</time>
      </trkpt>
      <trkpt lat="43.40406" lon="1.34018">
        <ele>260.654541</ele>
        <time>2008-11-01T16:14:01Z</time>
      </trkpt>
      <trkpt lat="43.40417" lon="1.34047">
        <ele>258.731934</ele>
        <time>2008-11-01T16:14:10Z</time>
      </trkpt>
      <trkpt lat="43.40424" lon="1.34058">
        <ele>256.328735</ele>
        <time>2008-11-01T16:14:12Z</time>
      </trkpt>
      <trkpt lat="43.40458" lon="1.34074">
        <ele>251.041382</ele>
        <time>2008-11-01T16:14:18Z</time>
      </trkpt>
      <trkpt lat="43.40464" lon="1.34075">
        <ele>251.041382</ele>
        <time>2008-11-01T16:14:19Z</time>
      </trkpt>
      <trkpt lat="43.40475" lon="1.34077">
        <ele>251.041382</ele>
        <time>2008-11-01T16:14:21Z</time>
      </trkpt>
      <trkpt lat="43.40485" lon="1.34107">
        <ele>250.560791</ele>
        <time>2008-11-01T16:14:25Z</time>
      </trkpt>
      <trkpt lat="43.40488" lon="1.34119">
        <ele>251.041382</ele>
        <time>2008-11-01T16:14:27Z</time>
      </trkpt>
      <trkpt lat="43.40488" lon="1.34138">
        <ele>251.522095</ele>
        <time>2008-11-01T16:14:31Z</time>
      </trkpt>
      <trkpt lat="43.40506" lon="1.34079">
        <ele>247.676758</ele>
        <time>2008-11-01T16:14:36Z</time>
      </trkpt>
      <trkpt lat="43.40564" lon="1.34305">
        <ele>250.0802</ele>
        <time>2008-11-01T16:14:49Z</time>
      </trkpt>
      <trkpt lat="43.40507" lon="1.34302">
        <ele>247.196045</ele>
        <time>2008-11-01T16:14:56Z</time>
      </trkpt>
      <trkpt lat="43.40507" lon="1.34309">
        <ele>246.234863</ele>
        <time>2008-11-01T16:14:58Z</time>
      </trkpt>
      <trkpt lat="43.40511" lon="1.34323">
        <ele>244.792847</ele>
        <time>2008-11-01T16:15:01Z</time>
      </trkpt>
      <trkpt lat="43.40506" lon="1.34329">
        <ele>246.715454</ele>
        <time>2008-11-01T16:15:13Z</time>
      </trkpt>
      <trkpt lat="43.40508" lon="1.34323">
        <ele>243.831543</ele>
        <time>2008-11-01T16:16:10Z</time>
      </trkpt>
      <trkpt lat="43.40507" lon="1.3431">
        <ele>246.715454</ele>
        <time>2008-11-01T16:16:18Z</time>
      </trkpt>
      <trkpt lat="43.40505" lon="1.34297">
        <ele>249.118774</ele>
        <time>2008-11-01T16:16:29Z</time>
      </trkpt>
      <trkpt lat="43.40507" lon="1.3429">
        <ele>249.599487</ele>
        <time>2008-11-01T16:16:34Z</time>
      </trkpt>
      <trkpt lat="43.40515" lon="1.34262">
        <ele>249.118774</ele>
        <time>2008-11-01T16:16:54Z</time>
      </trkpt>
      <trkpt lat="43.40509" lon="1.34182">
        <ele>251.522095</ele>
        <time>2008-11-01T16:17:23Z</time>
      </trkpt>
      <trkpt lat="43.40501" lon="1.34157">
        <ele>251.041382</ele>
        <time>2008-11-01T16:17:29Z</time>
      </trkpt>
      <trkpt lat="43.40493" lon="1.34117">
        <ele>251.041382</ele>
        <time>2008-11-01T16:17:36Z</time>
      </trkpt>
      <trkpt lat="43.40487" lon="1.34107">
        <ele>252.483398</ele>
        <time>2008-11-01T16:17:39Z</time>
      </trkpt>
      <trkpt lat="43.40481" lon="1.34103">
        <ele>253.444702</ele>
        <time>2008-11-01T16:17:42Z</time>
      </trkpt>
      <trkpt lat="43.40479" lon="1.34102">
        <ele>253.925415</ele>
        <time>2008-11-01T16:17:43Z</time>
      </trkpt>
      <trkpt lat="43.40452" lon="1.34081">
        <ele>256.809326</ele>
        <time>2008-11-01T16:18:03Z</time>
      </trkpt>
      <trkpt lat="43.40424" lon="1.3406">
        <ele>259.693359</ele>
        <time>2008-11-01T16:18:21Z</time>
      </trkpt>
      <trkpt lat="43.40415" lon="1.34044">
        <ele>259.693359</ele>
        <time>2008-11-01T16:18:35Z</time>
      </trkpt>
      <trkpt lat="43.40416" lon="1.34044">
        <ele>259.693359</ele>
        <time>2008-11-01T16:19:49Z</time>
      </trkpt>
      <trkpt lat="43.40408" lon="1.34037">
        <ele>260.17395</ele>
        <time>2008-11-01T16:20:22Z</time>
      </trkpt>
      <trkpt lat="43.40387" lon="1.34022">
        <ele>263.538574</ele>
        <time>2008-11-01T16:20:39Z</time>
      </trkpt>
      <trkpt lat="43.40383" lon="1.3401">
        <ele>265.461304</ele>
        <time>2008-11-01T16:20:56Z</time>
      </trkpt>
      <trkpt lat="43.40378" lon="1.34003">
        <ele>266.422485</ele>
        <time>2008-11-01T16:21:00Z</time>
      </trkpt>
      <trkpt lat="43.40365" lon="1.33991">
        <ele>269.306519</ele>
        <time>2008-11-01T16:21:10Z</time>
      </trkpt>
      <trkpt lat="43.40342" lon="1.33959">
        <ele>271.709717</ele>
        <time>2008-11-01T16:21:32Z</time>
      </trkpt>
      <trkpt lat="43.40329" lon="1.33946">
        <ele>275.074463</ele>
        <time>2008-11-01T16:21:43Z</time>
      </trkpt>
      <trkpt lat="43.4032" lon="1.3393">
        <ele>278.438965</ele>
        <time>2008-11-01T16:21:53Z</time>
      </trkpt>
      <trkpt lat="43.40319" lon="1.33928">
        <ele>278.438965</ele>
        <time>2008-11-01T16:21:54Z</time>
      </trkpt>
      <trkpt lat="43.40317" lon="1.33925">
        <ele>279.880859</ele>
        <time>2008-11-01T16:21:56Z</time>
      </trkpt>
      <trkpt lat="43.40306" lon="1.33894">
        <ele>281.803589</ele>
        <time>2008-11-01T16:22:16Z</time>
      </trkpt>
      <trkpt lat="43.40304" lon="1.3387">
        <ele>285.168213</ele>
        <time>2008-11-01T16:22:30Z</time>
      </trkpt>
      <trkpt lat="43.40301" lon="1.33863">
        <ele>285.648804</ele>
        <time>2008-11-01T16:22:58Z</time>
      </trkpt>
      <trkpt lat="43.403" lon="1.33861">
        <ele>285.648804</ele>
        <time>2008-11-01T16:22:59Z</time>
      </trkpt>
      <trkpt lat="43.40295" lon="1.33855">
        <ele>286.610229</ele>
        <time>2008-11-01T16:23:03Z</time>
      </trkpt>
      <trkpt lat="43.40277" lon="1.33842">
        <ele>289.974854</ele>
        <time>2008-11-01T16:23:16Z</time>
      </trkpt>
      <trkpt lat="43.40246" lon="1.33836">
        <ele>289.974854</ele>
        <time>2008-11-01T16:23:33Z</time>
      </trkpt>
      <trkpt lat="43.40205" lon="1.33835">
        <ele>290.936157</ele>
        <time>2008-11-01T16:23:52Z</time>
      </trkpt>
      <trkpt lat="43.40188" lon="1.33833">
        <ele>291.416748</ele>
        <time>2008-11-01T16:24:01Z</time>
      </trkpt>
      <trkpt lat="43.40183" lon="1.338">
        <ele>290.936157</ele>
        <time>2008-11-01T16:24:10Z</time>
      </trkpt>
      <trkpt lat="43.4018" lon="1.33707">
        <ele>290.936157</ele>
        <time>2008-11-01T16:24:31Z</time>
      </trkpt>
      <trkpt lat="43.40193" lon="1.33604">
        <ele>291.416748</ele>
        <time>2008-11-01T16:24:52Z</time>
      </trkpt>
      <trkpt lat="43.40212" lon="1.33498">
        <ele>292.378174</ele>
        <time>2008-11-01T16:25:13Z</time>
      </trkpt>
      <trkpt lat="43.40229" lon="1.33405">
        <ele>292.378174</ele>
        <time>2008-11-01T16:25:32Z</time>
      </trkpt>
      <trkpt lat="43.40243" lon="1.33339">
        <ele>293.339355</ele>
        <time>2008-11-01T16:25:44Z</time>
      </trkpt>
      <trkpt lat="43.40263" lon="1.33222">
        <ele>292.378174</ele>
        <time>2008-11-01T16:26:01Z</time>
      </trkpt>
      <trkpt lat="43.4028" lon="1.33101">
        <ele>293.339355</ele>
        <time>2008-11-01T16:26:19Z</time>
      </trkpt>
      <trkpt lat="43.40299" lon="1.32982">
        <ele>295.261963</ele>
        <time>2008-11-01T16:26:38Z</time>
      </trkpt>
      <trkpt lat="43.40286" lon="1.32913">
        <ele>298.146118</ele>
        <time>2008-11-01T16:26:52Z</time>
      </trkpt>
      <trkpt lat="43.40285" lon="1.32909">
        <ele>298.626709</ele>
        <time>2008-11-01T16:26:53Z</time>
      </trkpt>
      <trkpt lat="43.40303" lon="1.32913">
        <ele>298.626709</ele>
        <time>2008-11-01T16:26:59Z</time>
      </trkpt>
      <trkpt lat="43.40339" lon="1.32958">
        <ele>295.261963</ele>
        <time>2008-11-01T16:27:12Z</time>
      </trkpt>
      <trkpt lat="43.40377" lon="1.32996">
        <ele>293.820068</ele>
        <time>2008-11-01T16:27:22Z</time>
      </trkpt>
      <trkpt lat="43.40414" lon="1.33025">
        <ele>291.416748</ele>
        <time>2008-11-01T16:27:30Z</time>
      </trkpt>
      <trkpt lat="43.40479" lon="1.3308">
        <ele>288.532959</ele>
        <time>2008-11-01T16:27:41Z</time>
      </trkpt>
      <trkpt lat="43.40502" lon="1.33103">
        <ele>289.494141</ele>
        <time>2008-11-01T16:27:45Z</time>
      </trkpt>
      <trkpt lat="43.40554" lon="1.33121">
        <ele>284.206909</ele>
        <time>2008-11-01T16:27:53Z</time>
      </trkpt>
      <trkpt lat="43.4056" lon="1.33127">
        <ele>284.206909</ele>
        <time>2008-11-01T16:27:54Z</time>
      </trkpt>
      <trkpt lat="43.40565" lon="1.33133">
        <ele>285.168213</ele>
        <time>2008-11-01T16:27:55Z</time>
      </trkpt>
      <trkpt lat="43.40586" lon="1.33159">
        <ele>285.648804</ele>
        <time>2008-11-01T16:27:59Z</time>
      </trkpt>
      <trkpt lat="43.40604" lon="1.33176">
        <ele>284.206909</ele>
        <time>2008-11-01T16:28:02Z</time>
      </trkpt>
      <trkpt lat="43.40654" lon="1.33217">
        <ele>281.322998</ele>
        <time>2008-11-01T16:28:10Z</time>
      </trkpt>
      <trkpt lat="43.40734" lon="1.33301">
        <ele>282.765015</ele>
        <time>2008-11-01T16:28:26Z</time>
      </trkpt>
      <trkpt lat="43.40746" lon="1.33321">
        <ele>282.284302</ele>
        <time>2008-11-01T16:28:29Z</time>
      </trkpt>
      <trkpt lat="43.40755" lon="1.33363">
        <ele>280.842407</ele>
        <time>2008-11-01T16:28:34Z</time>
      </trkpt>
      <trkpt lat="43.40749" lon="1.33394">
        <ele>282.284302</ele>
        <time>2008-11-01T16:28:42Z</time>
      </trkpt>
      <trkpt lat="43.40749" lon="1.33394">
        <ele>283.245605</ele>
        <time>2008-11-01T16:28:56Z</time>
      </trkpt>
      <trkpt lat="43.4075" lon="1.33393">
        <ele>283.245605</ele>
        <time>2008-11-01T16:28:59Z</time>
      </trkpt>
      <trkpt lat="43.4075" lon="1.33393">
        <ele>282.284302</ele>
        <time>2008-11-01T16:29:01Z</time>
      </trkpt>
      <trkpt lat="43.40764" lon="1.33398">
        <ele>282.284302</ele>
        <time>2008-11-01T16:29:14Z</time>
      </trkpt>
      <trkpt lat="43.40775" lon="1.33407">
        <ele>278.919678</ele>
        <time>2008-11-01T16:29:17Z</time>
      </trkpt>
      <trkpt lat="43.40798" lon="1.33404">
        <ele>275.074463</ele>
        <time>2008-11-01T16:29:23Z</time>
      </trkpt>
      <trkpt lat="43.4082" lon="1.33402">
        <ele>272.19043</ele>
        <time>2008-11-01T16:29:27Z</time>
      </trkpt>
      <trkpt lat="43.40836" lon="1.33399">
        <ele>271.229126</ele>
        <time>2008-11-01T16:29:30Z</time>
      </trkpt>
      <trkpt lat="43.40844" lon="1.33392">
        <ele>268.345093</ele>
        <time>2008-11-01T16:29:32Z</time>
      </trkpt>
      <trkpt lat="43.40857" lon="1.33374">
        <ele>265.461304</ele>
        <time>2008-11-01T16:29:37Z</time>
      </trkpt>
      <trkpt lat="43.40869" lon="1.33414">
        <ele>262.096558</ele>
        <time>2008-11-01T16:29:44Z</time>
      </trkpt>
      <trkpt lat="43.40873" lon="1.33446">
        <ele>262.577148</ele>
        <time>2008-11-01T16:29:49Z</time>
      </trkpt>
      <trkpt lat="43.40831" lon="1.33435">
        <ele>262.577148</ele>
        <time>2008-11-01T16:29:53Z</time>
      </trkpt>
      <trkpt lat="43.40858" lon="1.33477">
        <ele>262.096558</ele>
        <time>2008-11-01T16:29:58Z</time>
      </trkpt>
      <trkpt lat="43.40808" lon="1.33456">
        <ele>255.848022</ele>
        <time>2008-11-01T16:30:04Z</time>
      </trkpt>
      <trkpt lat="43.40883" lon="1.33512">
        <ele>253.925415</ele>
        <time>2008-11-01T16:30:07Z</time>
      </trkpt>
      <trkpt lat="43.40884" lon="1.33516">
        <ele>253.444702</ele>
        <time>2008-11-01T16:30:18Z</time>
      </trkpt>
      <trkpt lat="43.40884" lon="1.33516">
        <ele>252.483398</ele>
        <time>2008-11-01T16:30:28Z</time>
      </trkpt>
      <trkpt lat="43.40887" lon="1.33531">
        <ele>252.483398</ele>
        <time>2008-11-01T16:30:33Z</time>
      </trkpt>
      <trkpt lat="43.40869" lon="1.33545">
        <ele>254.406006</ele>
        <time>2008-11-01T16:30:45Z</time>
      </trkpt>
      <trkpt lat="43.40853" lon="1.33557">
        <ele>255.848022</ele>
        <time>2008-11-01T16:30:54Z</time>
      </trkpt>
      <trkpt lat="43.40841" lon="1.33553">
        <ele>256.809326</ele>
        <time>2008-11-01T16:31:11Z</time>
      </trkpt>
      <trkpt lat="43.40842" lon="1.33542">
        <ele>258.251343</ele>
        <time>2008-11-01T16:31:21Z</time>
      </trkpt>
      <trkpt lat="43.40842" lon="1.33542">
        <ele>260.654541</ele>
        <time>2008-11-01T16:31:40Z</time>
      </trkpt>
      <trkpt lat="43.40842" lon="1.33542">
        <ele>264.499878</ele>
        <time>2008-11-01T16:31:56Z</time>
      </trkpt>
      <trkpt lat="43.40842" lon="1.33542">
        <ele>264.499878</ele>
        <time>2008-11-01T16:31:58Z</time>
      </trkpt>
      <trkpt lat="43.40842" lon="1.33542">
        <ele>265.941895</ele>
        <time>2008-11-01T16:32:05Z</time>
      </trkpt>
      <trkpt lat="43.40842" lon="1.33542">
        <ele>269.306519</ele>
        <time>2008-11-01T16:32:16Z</time>
      </trkpt>
      <trkpt lat="43.40808" lon="1.33456">
        <ele>270.748413</ele>
        <time>2008-11-01T16:32:33Z</time>
      </trkpt>
      <trkpt lat="43.40806" lon="1.33446">
        <ele>271.229126</ele>
        <time>2008-11-01T16:32:52Z</time>
      </trkpt>
      <trkpt lat="43.40806" lon="1.33446">
        <ele>271.709717</ele>
        <time>2008-11-01T16:32:55Z</time>
      </trkpt>
      <trkpt lat="43.40803" lon="1.33441">
        <ele>273.151855</ele>
        <time>2008-11-01T16:33:14Z</time>
      </trkpt>
      <trkpt lat="43.40803" lon="1.33441">
        <ele>273.632446</ele>
        <time>2008-11-01T16:33:24Z</time>
      </trkpt>
      <trkpt lat="43.40803" lon="1.33441">
        <ele>274.113037</ele>
        <time>2008-11-01T16:33:53Z</time>
      </trkpt>
      <trkpt lat="43.40803" lon="1.33441">
        <ele>274.59375</ele>
        <time>2008-11-01T16:34:00Z</time>
      </trkpt>
      <trkpt lat="43.40803" lon="1.33441">
        <ele>273.151855</ele>
        <time>2008-11-01T16:34:14Z</time>
      </trkpt>
      <trkpt lat="43.40803" lon="1.33441">
        <ele>272.671143</ele>
        <time>2008-11-01T16:34:15Z</time>
      </trkpt>
      <trkpt lat="43.40805" lon="1.33445">
        <ele>271.709717</ele>
        <time>2008-11-01T16:34:21Z</time>
      </trkpt>
      <trkpt lat="43.40805" lon="1.33445">
        <ele>271.229126</ele>
        <time>2008-11-01T16:34:24Z</time>
      </trkpt>
      <trkpt lat="43.40805" lon="1.33445">
        <ele>270.748413</ele>
        <time>2008-11-01T16:34:38Z</time>
      </trkpt>
      <trkpt lat="43.40805" lon="1.33445">
        <ele>269.306519</ele>
        <time>2008-11-01T16:34:40Z</time>
      </trkpt>
      <trkpt lat="43.40806" lon="1.3346">
        <ele>265.941895</ele>
        <time>2008-11-01T16:34:45Z</time>
      </trkpt>
      <trkpt lat="43.40805" lon="1.33462">
        <ele>265.461304</ele>
        <time>2008-11-01T16:34:46Z</time>
      </trkpt>
      <trkpt lat="43.4082" lon="1.33477">
        <ele>264.019287</ele>
        <time>2008-11-01T16:34:48Z</time>
      </trkpt>
      <trkpt lat="43.4082" lon="1.33509">
        <ele>260.17395</ele>
        <time>2008-11-01T16:34:53Z</time>
      </trkpt>
      <trkpt lat="43.40827" lon="1.33518">
        <ele>257.770752</ele>
        <time>2008-11-01T16:34:55Z</time>
      </trkpt>
      <trkpt lat="43.40838" lon="1.33534">
        <ele>255.36731</ele>
        <time>2008-11-01T16:34:58Z</time>
      </trkpt>
      <trkpt lat="43.40831" lon="1.33557">
        <ele>254.886597</ele>
        <time>2008-11-01T16:35:07Z</time>
      </trkpt>
      <trkpt lat="43.40831" lon="1.33557">
        <ele>254.406006</ele>
        <time>2008-11-01T16:35:29Z</time>
      </trkpt>
      <trkpt lat="43.40864" lon="1.33557">
        <ele>252.963989</ele>
        <time>2008-11-01T16:35:36Z</time>
      </trkpt>
      <trkpt lat="43.40873" lon="1.33558">
        <ele>253.444702</ele>
        <time>2008-11-01T16:35:43Z</time>
      </trkpt>
      <trkpt lat="43.4088" lon="1.33545">
        <ele>253.444702</ele>
        <time>2008-11-01T16:35:53Z</time>
      </trkpt>
      <trkpt lat="43.4088" lon="1.33545">
        <ele>253.444702</ele>
        <time>2008-11-01T16:36:08Z</time>
      </trkpt>
      <trkpt lat="43.40874" lon="1.33548">
        <ele>252.963989</ele>
        <time>2008-11-01T16:36:13Z</time>
      </trkpt>
      <trkpt lat="43.40867" lon="1.33544">
        <ele>254.406006</ele>
        <time>2008-11-01T16:36:18Z</time>
      </trkpt>
      <trkpt lat="43.40852" lon="1.33557">
        <ele>255.36731</ele>
        <time>2008-11-01T16:36:29Z</time>
      </trkpt>
      <trkpt lat="43.40852" lon="1.33557">
        <ele>255.848022</ele>
        <time>2008-11-01T16:36:57Z</time>
      </trkpt>
      <trkpt lat="43.40852" lon="1.33557">
        <ele>255.36731</ele>
        <time>2008-11-01T16:37:13Z</time>
      </trkpt>
      <trkpt lat="43.40905" lon="1.33559">
        <ele>248.157593</ele>
        <time>2008-11-01T16:37:32Z</time>
      </trkpt>
      <trkpt lat="43.40906" lon="1.33559">
        <ele>248.157593</ele>
        <time>2008-11-01T16:37:34Z</time>
      </trkpt>
      <trkpt lat="43.40906" lon="1.33559">
        <ele>251.522095</ele>
        <time>2008-11-01T16:37:43Z</time>
      </trkpt>
      <trkpt lat="43.40906" lon="1.33559">
        <ele>252.483398</ele>
        <time>2008-11-01T16:37:45Z</time>
      </trkpt>
      <trkpt lat="43.40896" lon="1.33679">
        <ele>255.36731</ele>
        <time>2008-11-01T16:37:55Z</time>
      </trkpt>
      <trkpt lat="43.40901" lon="1.3369">
        <ele>257.290039</ele>
        <time>2008-11-01T16:38:12Z</time>
      </trkpt>
      <trkpt lat="43.40966" lon="1.33778">
        <ele>259.693359</ele>
        <time>2008-11-01T16:38:33Z</time>
      </trkpt>
      <trkpt lat="43.41058" lon="1.33713">
        <ele>256.328735</ele>
        <time>2008-11-01T16:38:47Z</time>
      </trkpt>
      <trkpt lat="43.41082" lon="1.33834">
        <ele>249.599487</ele>
        <time>2008-11-01T16:38:55Z</time>
      </trkpt>
      <trkpt lat="43.41082" lon="1.33834">
        <ele>250.0802</ele>
        <time>2008-11-01T16:38:58Z</time>
      </trkpt>
      <trkpt lat="43.41102" lon="1.33787">
        <ele>252.002808</ele>
        <time>2008-11-01T16:39:03Z</time>
      </trkpt>
      <trkpt lat="43.41101" lon="1.33793">
        <ele>252.963989</ele>
        <time>2008-11-01T16:39:07Z</time>
      </trkpt>
      <trkpt lat="43.41094" lon="1.33811">
        <ele>256.328735</ele>
        <time>2008-11-01T16:39:14Z</time>
      </trkpt>
      <trkpt lat="43.41093" lon="1.33812">
        <ele>256.328735</ele>
        <time>2008-11-01T16:39:15Z</time>
      </trkpt>
      <trkpt lat="43.41082" lon="1.33836">
        <ele>259.693359</ele>
        <time>2008-11-01T16:39:28Z</time>
      </trkpt>
      <trkpt lat="43.41073" lon="1.33858">
        <ele>263.057861</ele>
        <time>2008-11-01T16:39:41Z</time>
      </trkpt>
      <trkpt lat="43.41061" lon="1.33888">
        <ele>266.422485</ele>
        <time>2008-11-01T16:39:58Z</time>
      </trkpt>
      <trkpt lat="43.41054" lon="1.33905">
        <ele>269.787109</ele>
        <time>2008-11-01T16:40:12Z</time>
      </trkpt>
      <trkpt lat="43.41031" lon="1.33942">
        <ele>273.151855</ele>
        <time>2008-11-01T16:40:32Z</time>
      </trkpt>
      <trkpt lat="43.41023" lon="1.3395">
        <ele>276.516357</ele>
        <time>2008-11-01T16:40:45Z</time>
      </trkpt>
      <trkpt lat="43.41006" lon="1.3397">
        <ele>279.880859</ele>
        <time>2008-11-01T16:40:56Z</time>
      </trkpt>
      <trkpt lat="43.41005" lon="1.33973">
        <ele>280.842407</ele>
        <time>2008-11-01T16:40:58Z</time>
      </trkpt>
      <trkpt lat="43.40986" lon="1.34028">
        <ele>282.284302</ele>
        <time>2008-11-01T16:41:18Z</time>
      </trkpt>
      <trkpt lat="43.40961" lon="1.3405">
        <ele>282.284302</ele>
        <time>2008-11-01T16:41:31Z</time>
      </trkpt>
      <trkpt lat="43.40955" lon="1.34058">
        <ele>282.765015</ele>
        <time>2008-11-01T16:41:35Z</time>
      </trkpt>
      <trkpt lat="43.40957" lon="1.34063">
        <ele>282.765015</ele>
        <time>2008-11-01T16:41:40Z</time>
      </trkpt>
      <trkpt lat="43.40957" lon="1.34063">
        <ele>282.765015</ele>
        <time>2008-11-01T16:41:44Z</time>
      </trkpt>
      <trkpt lat="43.40962" lon="1.34078">
        <ele>282.765015</ele>
        <time>2008-11-01T16:41:48Z</time>
      </trkpt>
      <trkpt lat="43.40966" lon="1.34092">
        <ele>283.245605</ele>
        <time>2008-11-01T16:41:54Z</time>
      </trkpt>
      <trkpt lat="43.40971" lon="1.34137">
        <ele>283.726196</ele>
        <time>2008-11-01T16:42:15Z</time>
      </trkpt>
      <trkpt lat="43.40971" lon="1.34137">
        <ele>283.245605</ele>
        <time>2008-11-01T16:42:48Z</time>
      </trkpt>
      <trkpt lat="43.40979" lon="1.34161">
        <ele>283.726196</ele>
        <time>2008-11-01T16:42:54Z</time>
      </trkpt>
      <trkpt lat="43.40963" lon="1.34193">
        <ele>283.726196</ele>
        <time>2008-11-01T16:43:11Z</time>
      </trkpt>
      <trkpt lat="43.40959" lon="1.34206">
        <ele>283.726196</ele>
        <time>2008-11-01T16:43:29Z</time>
      </trkpt>
      <trkpt lat="43.40941" lon="1.3427">
        <ele>284.206909</ele>
        <time>2008-11-01T16:43:48Z</time>
      </trkpt>
      <trkpt lat="43.40926" lon="1.34311">
        <ele>283.726196</ele>
        <time>2008-11-01T16:43:59Z</time>
      </trkpt>
      <trkpt lat="43.40962" lon="1.34356">
        <ele>283.245605</ele>
        <time>2008-11-01T16:44:05Z</time>
      </trkpt>
      <trkpt lat="43.40994" lon="1.34393">
        <ele>279.880859</ele>
        <time>2008-11-01T16:44:14Z</time>
      </trkpt>
      <trkpt lat="43.41" lon="1.34403">
        <ele>279.400269</ele>
        <time>2008-11-01T16:44:16Z</time>
      </trkpt>
      <trkpt lat="43.41009" lon="1.34435">
        <ele>276.035645</ele>
        <time>2008-11-01T16:44:20Z</time>
      </trkpt>
      <trkpt lat="43.41028" lon="1.34525">
        <ele>276.035645</ele>
        <time>2008-11-01T16:44:30Z</time>
      </trkpt>
      <trkpt lat="43.41108" lon="1.3466">
        <ele>277.477661</ele>
        <time>2008-11-01T16:44:41Z</time>
      </trkpt>
      <trkpt lat="43.41097" lon="1.34687">
        <ele>278.438965</ele>
        <time>2008-11-01T16:44:50Z</time>
      </trkpt>
      <trkpt lat="43.41087" lon="1.34716">
        <ele>275.074463</ele>
        <time>2008-11-01T16:45:01Z</time>
      </trkpt>
      <trkpt lat="43.41085" lon="1.34723">
        <ele>274.113037</ele>
        <time>2008-11-01T16:45:03Z</time>
      </trkpt>
      <trkpt lat="43.41076" lon="1.34791">
        <ele>272.671143</ele>
        <time>2008-11-01T16:45:11Z</time>
      </trkpt>
      <trkpt lat="43.41076" lon="1.34792">
        <ele>271.709717</ele>
        <time>2008-11-01T16:45:13Z</time>
      </trkpt>
      <trkpt lat="43.41068" lon="1.34831">
        <ele>269.306519</ele>
        <time>2008-11-01T16:45:17Z</time>
      </trkpt>
      <trkpt lat="43.41066" lon="1.34845">
        <ele>268.825806</ele>
        <time>2008-11-01T16:45:18Z</time>
      </trkpt>
      <trkpt lat="43.41056" lon="1.34891">
        <ele>264.980591</ele>
        <time>2008-11-01T16:45:23Z</time>
      </trkpt>
      <trkpt lat="43.41052" lon="1.3491">
        <ele>264.019287</ele>
        <time>2008-11-01T16:45:25Z</time>
      </trkpt>
      <trkpt lat="43.41042" lon="1.3498">
        <ele>261.135254</ele>
        <time>2008-11-01T16:45:33Z</time>
      </trkpt>
      <trkpt lat="43.41036" lon="1.35051">
        <ele>254.406006</ele>
        <time>2008-11-01T16:45:42Z</time>
      </trkpt>
      <trkpt lat="43.41035" lon="1.35067">
        <ele>252.483398</ele>
        <time>2008-11-01T16:45:44Z</time>
      </trkpt>
      <trkpt lat="43.41035" lon="1.35072">
        <ele>250.0802</ele>
        <time>2008-11-01T16:45:52Z</time>
      </trkpt>
      <trkpt lat="43.40994" lon="1.35111">
        <ele>247.676758</ele>
        <time>2008-11-01T16:45:59Z</time>
      </trkpt>
      <trkpt lat="43.40976" lon="1.35124">
        <ele>244.792847</ele>
        <time>2008-11-01T16:46:03Z</time>
      </trkpt>
      <trkpt lat="43.40966" lon="1.35132">
        <ele>243.35083</ele>
        <time>2008-11-01T16:46:08Z</time>
      </trkpt>
      <trkpt lat="43.40992" lon="1.35204">
        <ele>240.467041</ele>
        <time>2008-11-01T16:46:19Z</time>
      </trkpt>
      <trkpt lat="43.40997" lon="1.35227">
        <ele>236.621704</ele>
        <time>2008-11-01T16:46:22Z</time>
      </trkpt>
      <trkpt lat="43.41" lon="1.35238">
        <ele>235.660278</ele>
        <time>2008-11-01T16:46:23Z</time>
      </trkpt>
      <trkpt lat="43.41012" lon="1.35286">
        <ele>231.814941</ele>
        <time>2008-11-01T16:46:27Z</time>
      </trkpt>
      <trkpt lat="43.41009" lon="1.35325">
        <ele>226.047119</ele>
        <time>2008-11-01T16:46:30Z</time>
      </trkpt>
      <trkpt lat="43.41009" lon="1.35356">
        <ele>221.721191</ele>
        <time>2008-11-01T16:46:32Z</time>
      </trkpt>
      <trkpt lat="43.41012" lon="1.35389">
        <ele>216.914673</ele>
        <time>2008-11-01T16:46:34Z</time>
      </trkpt>
      <trkpt lat="43.41017" lon="1.35441">
        <ele>213.550049</ele>
        <time>2008-11-01T16:46:37Z</time>
      </trkpt>
      <trkpt lat="43.41021" lon="1.35475">
        <ele>211.146729</ele>
        <time>2008-11-01T16:46:39Z</time>
      </trkpt>
      <trkpt lat="43.41031" lon="1.35541">
        <ele>207.782104</ele>
        <time>2008-11-01T16:46:43Z</time>
      </trkpt>
      <trkpt lat="43.41034" lon="1.35575">
        <ele>206.820679</ele>
        <time>2008-11-01T16:46:45Z</time>
      </trkpt>
      <trkpt lat="43.41036" lon="1.35603">
        <ele>210.185425</ele>
        <time>2008-11-01T16:46:47Z</time>
      </trkpt>
      <trkpt lat="43.41038" lon="1.35623">
        <ele>211.627441</ele>
        <time>2008-11-01T16:46:49Z</time>
      </trkpt>
      <trkpt lat="43.4104" lon="1.35641">
        <ele>213.069336</ele>
        <time>2008-11-01T16:46:52Z</time>
      </trkpt>
      <trkpt lat="43.41056" lon="1.35633">
        <ele>214.51123</ele>
        <time>2008-11-01T16:46:55Z</time>
      </trkpt>
      <trkpt lat="43.41067" lon="1.35623">
        <ele>215.472656</ele>
        <time>2008-11-01T16:47:05Z</time>
      </trkpt>
      <trkpt lat="43.4106" lon="1.35674">
        <ele>216.43396</ele>
        <time>2008-11-01T16:47:18Z</time>
      </trkpt>
      <trkpt lat="43.41064" lon="1.35763">
        <ele>213.550049</ele>
        <time>2008-11-01T16:47:38Z</time>
      </trkpt>
      <trkpt lat="43.41055" lon="1.35886">
        <ele>214.03064</ele>
        <time>2008-11-01T16:47:58Z</time>
      </trkpt>
      <trkpt lat="43.41055" lon="1.35989">
        <ele>214.03064</ele>
        <time>2008-11-01T16:48:18Z</time>
      </trkpt>
      <trkpt lat="43.41098" lon="1.36031">
        <ele>215.953247</ele>
        <time>2008-11-01T16:48:37Z</time>
      </trkpt>
      <trkpt lat="43.41155" lon="1.3606">
        <ele>214.51123</ele>
        <time>2008-11-01T16:48:54Z</time>
      </trkpt>
      <trkpt lat="43.41234" lon="1.36105">
        <ele>213.550049</ele>
        <time>2008-11-01T16:49:16Z</time>
      </trkpt>
      <trkpt lat="43.4132" lon="1.36148">
        <ele>214.03064</ele>
        <time>2008-11-01T16:49:38Z</time>
      </trkpt>
      <trkpt lat="43.41336" lon="1.36154">
        <ele>214.03064</ele>
        <time>2008-11-01T16:49:42Z</time>
      </trkpt>
      <trkpt lat="43.41428" lon="1.36187">
        <ele>214.03064</ele>
        <time>2008-11-01T16:50:04Z</time>
      </trkpt>
      <trkpt lat="43.41472" lon="1.36199">
        <ele>210.185425</ele>
        <time>2008-11-01T16:50:14Z</time>
      </trkpt>
      <trkpt lat="43.41479" lon="1.362">
        <ele>209.224121</ele>
        <time>2008-11-01T16:50:15Z</time>
      </trkpt>
      <trkpt lat="43.41504" lon="1.36193">
        <ele>204.41748</ele>
        <time>2008-11-01T16:50:18Z</time>
      </trkpt>
      <trkpt lat="43.41511" lon="1.36185">
        <ele>201.533569</ele>
        <time>2008-11-01T16:50:19Z</time>
      </trkpt>
      <trkpt lat="43.41524" lon="1.36172">
        <ele>200.091675</ele>
        <time>2008-11-01T16:50:21Z</time>
      </trkpt>
      <trkpt lat="43.41538" lon="1.36163">
        <ele>195.765625</ele>
        <time>2008-11-01T16:50:23Z</time>
      </trkpt>
      <trkpt lat="43.41554" lon="1.36169">
        <ele>190.478394</ele>
        <time>2008-11-01T16:50:25Z</time>
      </trkpt>
      <trkpt lat="43.41563" lon="1.36174">
        <ele>189.997681</ele>
        <time>2008-11-01T16:50:26Z</time>
      </trkpt>
      <trkpt lat="43.41589" lon="1.36188">
        <ele>193.362305</ele>
        <time>2008-11-01T16:50:31Z</time>
      </trkpt>
      <trkpt lat="43.41591" lon="1.36188">
        <ele>193.843018</ele>
        <time>2008-11-01T16:50:32Z</time>
      </trkpt>
      <trkpt lat="43.41599" lon="1.36162">
        <ele>193.362305</ele>
        <time>2008-11-01T16:50:39Z</time>
      </trkpt>
      <trkpt lat="43.41618" lon="1.36151">
        <ele>191.920288</ele>
        <time>2008-11-01T16:50:46Z</time>
      </trkpt>
      <trkpt lat="43.41689" lon="1.36166">
        <ele>192.881714</ele>
        <time>2008-11-01T16:51:05Z</time>
      </trkpt>
      <trkpt lat="43.4171" lon="1.36168">
        <ele>196.246338</ele>
        <time>2008-11-01T16:51:15Z</time>
      </trkpt>
      <trkpt lat="43.41732" lon="1.3617">
        <ele>199.130127</ele>
        <time>2008-11-01T16:51:28Z</time>
      </trkpt>
      <trkpt lat="43.41753" lon="1.36169">
        <ele>202.494873</ele>
        <time>2008-11-01T16:51:45Z</time>
      </trkpt>
      <trkpt lat="43.41753" lon="1.36169">
        <ele>203.93689</ele>
        <time>2008-11-01T16:51:47Z</time>
      </trkpt>
      <trkpt lat="43.41758" lon="1.36169">
        <ele>204.41748</ele>
        <time>2008-11-01T16:51:52Z</time>
      </trkpt>
      <trkpt lat="43.41768" lon="1.36169">
        <ele>204.898071</ele>
        <time>2008-11-01T16:51:57Z</time>
      </trkpt>
      <trkpt lat="43.41778" lon="1.36168">
        <ele>206.820679</ele>
        <time>2008-11-01T16:52:12Z</time>
      </trkpt>
      <trkpt lat="43.41778" lon="1.36151">
        <ele>206.820679</ele>
        <time>2008-11-01T16:52:26Z</time>
      </trkpt>
      <trkpt lat="43.41778" lon="1.36133">
        <ele>207.301392</ele>
        <time>2008-11-01T16:52:31Z</time>
      </trkpt>
      <trkpt lat="43.41778" lon="1.36114">
        <ele>207.782104</ele>
        <time>2008-11-01T16:52:41Z</time>
      </trkpt>
      <trkpt lat="43.41783" lon="1.36065">
        <ele>209.224121</ele>
        <time>2008-11-01T16:52:57Z</time>
      </trkpt>
      <trkpt lat="43.41793" lon="1.35992">
        <ele>211.627441</ele>
        <time>2008-11-01T16:53:16Z</time>
      </trkpt>
      <trkpt lat="43.4181" lon="1.35939">
        <ele>208.262817</ele>
        <time>2008-11-01T16:53:26Z</time>
      </trkpt>
      <trkpt lat="43.41818" lon="1.35904">
        <ele>203.456177</ele>
        <time>2008-11-01T16:53:30Z</time>
      </trkpt>
      <trkpt lat="43.41822" lon="1.35876">
        <ele>203.456177</ele>
        <time>2008-11-01T16:53:33Z</time>
      </trkpt>
      <trkpt lat="43.41824" lon="1.35859">
        <ele>206.340088</ele>
        <time>2008-11-01T16:53:35Z</time>
      </trkpt>
      <trkpt lat="43.4183" lon="1.35828">
        <ele>210.185425</ele>
        <time>2008-11-01T16:53:41Z</time>
      </trkpt>
      <trkpt lat="43.41838" lon="1.35792">
        <ele>211.146729</ele>
        <time>2008-11-01T16:53:49Z</time>
      </trkpt>
      <trkpt lat="43.41854" lon="1.35737">
        <ele>212.588623</ele>
        <time>2008-11-01T16:54:03Z</time>
      </trkpt>
      <trkpt lat="43.41861" lon="1.35721">
        <ele>213.069336</ele>
        <time>2008-11-01T16:54:10Z</time>
      </trkpt>
      <trkpt lat="43.41903" lon="1.35663">
        <ele>213.069336</ele>
        <time>2008-11-01T16:54:29Z</time>
      </trkpt>
      <trkpt lat="43.41963" lon="1.35579">
        <ele>212.108032</ele>
        <time>2008-11-01T16:54:52Z</time>
      </trkpt>
      <trkpt lat="43.42016" lon="1.35506">
        <ele>212.588623</ele>
        <time>2008-11-01T16:55:10Z</time>
      </trkpt>
      <trkpt lat="43.42064" lon="1.35439">
        <ele>212.108032</ele>
        <time>2008-11-01T16:55:28Z</time>
      </trkpt>
      <trkpt lat="43.42092" lon="1.35403">
        <ele>211.146729</ele>
        <time>2008-11-01T16:55:38Z</time>
      </trkpt>
      <trkpt lat="43.42144" lon="1.35445">
        <ele>212.588623</ele>
        <time>2008-11-01T16:55:55Z</time>
      </trkpt>
      <trkpt lat="43.42155" lon="1.35453">
        <ele>212.588623</ele>
        <time>2008-11-01T16:55:58Z</time>
      </trkpt>
      <trkpt lat="43.4223" lon="1.35507">
        <ele>210.185425</ele>
        <time>2008-11-01T16:56:15Z</time>
      </trkpt>
      <trkpt lat="43.42255" lon="1.35525">
        <ele>210.185425</ele>
        <time>2008-11-01T16:56:20Z</time>
      </trkpt>
      <trkpt lat="43.42362" lon="1.35602">
        <ele>207.301392</ele>
        <time>2008-11-01T16:56:40Z</time>
      </trkpt>
      <trkpt lat="43.42462" lon="1.35671">
        <ele>208.262817</ele>
        <time>2008-11-01T16:57:01Z</time>
      </trkpt>
      <trkpt lat="43.42545" lon="1.35731">
        <ele>209.224121</ele>
        <time>2008-11-01T16:57:21Z</time>
      </trkpt>
      <trkpt lat="43.42585" lon="1.3576">
        <ele>209.224121</ele>
        <time>2008-11-01T16:57:31Z</time>
      </trkpt>
      <trkpt lat="43.42593" lon="1.35766">
        <ele>208.743408</ele>
        <time>2008-11-01T16:57:33Z</time>
      </trkpt>
      <trkpt lat="43.42693" lon="1.3584">
        <ele>205.859497</ele>
        <time>2008-11-01T16:57:56Z</time>
      </trkpt>
      <trkpt lat="43.42781" lon="1.35912">
        <ele>203.93689</ele>
        <time>2008-11-01T16:58:13Z</time>
      </trkpt>
      <trkpt lat="43.42884" lon="1.35997">
        <ele>203.456177</ele>
        <time>2008-11-01T16:58:33Z</time>
      </trkpt>
      <trkpt lat="43.43022" lon="1.36112">
        <ele>203.456177</ele>
        <time>2008-11-01T16:59:00Z</time>
      </trkpt>
      <trkpt lat="43.43148" lon="1.3621">
        <ele>203.456177</ele>
        <time>2008-11-01T16:59:24Z</time>
      </trkpt>
      <trkpt lat="43.43278" lon="1.36313">
        <ele>203.456177</ele>
        <time>2008-11-01T16:59:49Z</time>
      </trkpt>
      <trkpt lat="43.43393" lon="1.36417">
        <ele>202.975464</ele>
        <time>2008-11-01T17:00:12Z</time>
      </trkpt>
      <trkpt lat="43.43447" lon="1.36461">
        <ele>202.975464</ele>
        <time>2008-11-01T17:00:23Z</time>
      </trkpt>
      <trkpt lat="43.43456" lon="1.36469">
        <ele>203.456177</ele>
        <time>2008-11-01T17:00:25Z</time>
      </trkpt>
      <trkpt lat="43.43506" lon="1.3651">
        <ele>204.41748</ele>
        <time>2008-11-01T17:00:39Z</time>
      </trkpt>
      <trkpt lat="43.43516" lon="1.36487">
        <ele>203.93689</ele>
        <time>2008-11-01T17:00:43Z</time>
      </trkpt>
      <trkpt lat="43.43529" lon="1.36349">
        <ele>203.456177</ele>
        <time>2008-11-01T17:01:04Z</time>
      </trkpt>
      <trkpt lat="43.43534" lon="1.36263">
        <ele>204.41748</ele>
        <time>2008-11-01T17:01:19Z</time>
      </trkpt>
      <trkpt lat="43.43551" lon="1.36256">
        <ele>205.378784</ele>
        <time>2008-11-01T17:01:23Z</time>
      </trkpt>
      <trkpt lat="43.43656" lon="1.36285">
        <ele>203.93689</ele>
        <time>2008-11-01T17:01:46Z</time>
      </trkpt>
      <trkpt lat="43.43757" lon="1.36312">
        <ele>203.93689</ele>
        <time>2008-11-01T17:02:07Z</time>
      </trkpt>
      <trkpt lat="43.43827" lon="1.3633">
        <ele>201.533569</ele>
        <time>2008-11-01T17:02:21Z</time>
      </trkpt>
      <trkpt lat="43.43858" lon="1.36337">
        <ele>197.20752</ele>
        <time>2008-11-01T17:02:26Z</time>
      </trkpt>
      <trkpt lat="43.43896" lon="1.36349">
        <ele>192.881714</ele>
        <time>2008-11-01T17:02:32Z</time>
      </trkpt>
      <trkpt lat="43.43913" lon="1.36354">
        <ele>193.843018</ele>
        <time>2008-11-01T17:02:34Z</time>
      </trkpt>
      <trkpt lat="43.43943" lon="1.36338">
        <ele>192.881714</ele>
        <time>2008-11-01T17:02:38Z</time>
      </trkpt>
      <trkpt lat="43.43945" lon="1.36324">
        <ele>193.362305</ele>
        <time>2008-11-01T17:02:40Z</time>
      </trkpt>
      <trkpt lat="43.43955" lon="1.36239">
        <ele>189.036377</ele>
        <time>2008-11-01T17:02:50Z</time>
      </trkpt>
      <trkpt lat="43.43987" lon="1.36044">
        <ele>186.152466</ele>
        <time>2008-11-01T17:03:11Z</time>
      </trkpt>
      <trkpt lat="43.43992" lon="1.36017">
        <ele>185.671753</ele>
        <time>2008-11-01T17:03:14Z</time>
      </trkpt>
      <trkpt lat="43.44008" lon="1.35903">
        <ele>186.152466</ele>
        <time>2008-11-01T17:03:28Z</time>
      </trkpt>
      <trkpt lat="43.44016" lon="1.3586">
        <ele>185.191162</ele>
        <time>2008-11-01T17:03:34Z</time>
      </trkpt>
      <trkpt lat="43.44042" lon="1.35847">
        <ele>185.191162</ele>
        <time>2008-11-01T17:03:40Z</time>
      </trkpt>
      <trkpt lat="43.44142" lon="1.35824">
        <ele>183.268433</ele>
        <time>2008-11-01T17:03:58Z</time>
      </trkpt>
      <trkpt lat="43.44171" lon="1.35796">
        <ele>184.229858</ele>
        <time>2008-11-01T17:04:04Z</time>
      </trkpt>
      <trkpt lat="43.44187" lon="1.35772">
        <ele>183.749023</ele>
        <time>2008-11-01T17:04:08Z</time>
      </trkpt>
      <trkpt lat="43.44207" lon="1.35776">
        <ele>183.749023</ele>
        <time>2008-11-01T17:04:13Z</time>
      </trkpt>
      <trkpt lat="43.44295" lon="1.35846">
        <ele>181.826416</ele>
        <time>2008-11-01T17:04:36Z</time>
      </trkpt>
      <trkpt lat="43.4431" lon="1.35842">
        <ele>182.307129</ele>
        <time>2008-11-01T17:04:40Z</time>
      </trkpt>
      <trkpt lat="43.44314" lon="1.35839">
        <ele>181.345825</ele>
        <time>2008-11-01T17:04:41Z</time>
      </trkpt>
      <trkpt lat="43.44322" lon="1.35833">
        <ele>181.826416</ele>
        <time>2008-11-01T17:04:43Z</time>
      </trkpt>
      <trkpt lat="43.44347" lon="1.35815">
        <ele>180.384521</ele>
        <time>2008-11-01T17:04:49Z</time>
      </trkpt>
      <trkpt lat="43.44366" lon="1.35816">
        <ele>179.423218</ele>
        <time>2008-11-01T17:04:53Z</time>
      </trkpt>
      <trkpt lat="43.44481" lon="1.35803">
        <ele>177.50061</ele>
        <time>2008-11-01T17:05:13Z</time>
      </trkpt>
      <trkpt lat="43.44593" lon="1.35806">
        <ele>178.461914</ele>
        <time>2008-11-01T17:05:32Z</time>
      </trkpt>
      <trkpt lat="43.44645" lon="1.35818">
        <ele>177.981201</ele>
        <time>2008-11-01T17:05:45Z</time>
      </trkpt>
      <trkpt lat="43.44659" lon="1.35815">
        <ele>178.942627</ele>
        <time>2008-11-01T17:05:50Z</time>
      </trkpt>
      <trkpt lat="43.44694" lon="1.35812">
        <ele>178.461914</ele>
        <time>2008-11-01T17:06:08Z</time>
      </trkpt>
      <trkpt lat="43.44724" lon="1.35834">
        <ele>178.461914</ele>
        <time>2008-11-01T17:06:19Z</time>
      </trkpt>
      <trkpt lat="43.44792" lon="1.35767">
        <ele>177.981201</ele>
        <time>2008-11-01T17:06:37Z</time>
      </trkpt>
      <trkpt lat="43.44869" lon="1.35671">
        <ele>177.02002</ele>
        <time>2008-11-01T17:06:57Z</time>
      </trkpt>
      <trkpt lat="43.44927" lon="1.35621">
        <ele>179.423218</ele>
        <time>2008-11-01T17:07:15Z</time>
      </trkpt>
      <trkpt lat="43.44978" lon="1.35588">
        <ele>181.826416</ele>
        <time>2008-11-01T17:07:32Z</time>
      </trkpt>
      <trkpt lat="43.45013" lon="1.35526">
        <ele>183.749023</ele>
        <time>2008-11-01T17:07:48Z</time>
      </trkpt>
      <trkpt lat="43.45037" lon="1.35462">
        <ele>183.749023</ele>
        <time>2008-11-01T17:08:05Z</time>
      </trkpt>
      <trkpt lat="43.45147" lon="1.35435">
        <ele>180.865234</ele>
        <time>2008-11-01T17:08:26Z</time>
      </trkpt>
      <trkpt lat="43.45169" lon="1.35428">
        <ele>179.903809</ele>
        <time>2008-11-01T17:08:30Z</time>
      </trkpt>
      <trkpt lat="43.45202" lon="1.354">
        <ele>179.423218</ele>
        <time>2008-11-01T17:08:36Z</time>
      </trkpt>
      <trkpt lat="43.45283" lon="1.35222">
        <ele>179.423218</ele>
        <time>2008-11-01T17:09:00Z</time>
      </trkpt>
      <trkpt lat="43.45289" lon="1.35208">
        <ele>179.423218</ele>
        <time>2008-11-01T17:09:02Z</time>
      </trkpt>
      <trkpt lat="43.45315" lon="1.35208">
        <ele>178.942627</ele>
        <time>2008-11-01T17:09:09Z</time>
      </trkpt>
      <trkpt lat="43.45328" lon="1.35227">
        <ele>178.461914</ele>
        <time>2008-11-01T17:09:12Z</time>
      </trkpt>
      <trkpt lat="43.45342" lon="1.35246">
        <ele>178.461914</ele>
        <time>2008-11-01T17:09:15Z</time>
      </trkpt>
      <trkpt lat="43.45379" lon="1.35251">
        <ele>177.981201</ele>
        <time>2008-11-01T17:09:20Z</time>
      </trkpt>
      <trkpt lat="43.45519" lon="1.35221">
        <ele>177.02002</ele>
        <time>2008-11-01T17:09:39Z</time>
      </trkpt>
      <trkpt lat="43.45628" lon="1.35185">
        <ele>176.539307</ele>
        <time>2008-11-01T17:09:54Z</time>
      </trkpt>
      <trkpt lat="43.45717" lon="1.35191">
        <ele>176.539307</ele>
        <time>2008-11-01T17:10:06Z</time>
      </trkpt>
      <trkpt lat="43.45832" lon="1.35164">
        <ele>176.058594</ele>
        <time>2008-11-01T17:10:22Z</time>
      </trkpt>
      <trkpt lat="43.45876" lon="1.35177">
        <ele>176.539307</ele>
        <time>2008-11-01T17:10:29Z</time>
      </trkpt>
      <trkpt lat="43.45898" lon="1.35159">
        <ele>177.02002</ele>
        <time>2008-11-01T17:10:33Z</time>
      </trkpt>
      <trkpt lat="43.45943" lon="1.35186">
        <ele>174.135864</ele>
        <time>2008-11-01T17:10:41Z</time>
      </trkpt>
      <trkpt lat="43.46013" lon="1.35252">
        <ele>176.539307</ele>
        <time>2008-11-01T17:10:56Z</time>
      </trkpt>
      <trkpt lat="43.46015" lon="1.35254">
        <ele>177.02002</ele>
        <time>2008-11-01T17:11:00Z</time>
      </trkpt>
      <trkpt lat="43.46055" lon="1.35292">
        <ele>175.09729</ele>
        <time>2008-11-01T17:11:15Z</time>
      </trkpt>
      <trkpt lat="43.46155" lon="1.35388">
        <ele>174.135864</ele>
        <time>2008-11-01T17:11:40Z</time>
      </trkpt>
      <trkpt lat="43.4618" lon="1.35412">
        <ele>174.135864</ele>
        <time>2008-11-01T17:11:46Z</time>
      </trkpt>
      <trkpt lat="43.46184" lon="1.35447">
        <ele>173.655273</ele>
        <time>2008-11-01T17:11:52Z</time>
      </trkpt>
      <trkpt lat="43.46112" lon="1.35578">
        <ele>173.174683</ele>
        <time>2008-11-01T17:12:10Z</time>
      </trkpt>
      <trkpt lat="43.46091" lon="1.35605">
        <ele>172.69397</ele>
        <time>2008-11-01T17:12:14Z</time>
      </trkpt>
      <trkpt lat="43.46061" lon="1.35629">
        <ele>173.655273</ele>
        <time>2008-11-01T17:12:19Z</time>
      </trkpt>
      <trkpt lat="43.46044" lon="1.35654">
        <ele>173.174683</ele>
        <time>2008-11-01T17:12:23Z</time>
      </trkpt>
      <trkpt lat="43.4605" lon="1.35711">
        <ele>171.732666</ele>
        <time>2008-11-01T17:12:30Z</time>
      </trkpt>
      <trkpt lat="43.46091" lon="1.35748">
        <ele>172.69397</ele>
        <time>2008-11-01T17:12:37Z</time>
      </trkpt>
      <trkpt lat="43.46158" lon="1.35852">
        <ele>172.213257</ele>
        <time>2008-11-01T17:12:51Z</time>
      </trkpt>
      <trkpt lat="43.46172" lon="1.359">
        <ele>172.213257</ele>
        <time>2008-11-01T17:12:56Z</time>
      </trkpt>
      <trkpt lat="43.46243" lon="1.36025">
        <ele>171.732666</ele>
        <time>2008-11-01T17:13:11Z</time>
      </trkpt>
      <trkpt lat="43.46319" lon="1.36197">
        <ele>171.252075</ele>
        <time>2008-11-01T17:13:30Z</time>
      </trkpt>
      <trkpt lat="43.46347" lon="1.36294">
        <ele>171.252075</ele>
        <time>2008-11-01T17:13:40Z</time>
      </trkpt>
      <trkpt lat="43.46355" lon="1.36346">
        <ele>171.252075</ele>
        <time>2008-11-01T17:13:45Z</time>
      </trkpt>
      <trkpt lat="43.46342" lon="1.36488">
        <ele>171.252075</ele>
        <time>2008-11-01T17:14:02Z</time>
      </trkpt>
      <trkpt lat="43.46342" lon="1.36494">
        <ele>170.771362</ele>
        <time>2008-11-01T17:14:03Z</time>
      </trkpt>
      <trkpt lat="43.46364" lon="1.36518">
        <ele>169.810059</ele>
        <time>2008-11-01T17:14:10Z</time>
      </trkpt>
      <trkpt lat="43.4637" lon="1.365">
        <ele>169.810059</ele>
        <time>2008-11-01T17:14:11Z</time>
      </trkpt>
      <trkpt lat="43.46467" lon="1.36405">
        <ele>168.368042</ele>
        <time>2008-11-01T17:14:32Z</time>
      </trkpt>
      <trkpt lat="43.46553" lon="1.36295">
        <ele>168.368042</ele>
        <time>2008-11-01T17:14:52Z</time>
      </trkpt>
      <trkpt lat="43.46622" lon="1.36172">
        <ele>168.848755</ele>
        <time>2008-11-01T17:15:12Z</time>
      </trkpt>
      <trkpt lat="43.46632" lon="1.36155">
        <ele>170.290649</ele>
        <time>2008-11-01T17:15:16Z</time>
      </trkpt>
      <trkpt lat="43.46674" lon="1.36088">
        <ele>169.810059</ele>
        <time>2008-11-01T17:15:31Z</time>
      </trkpt>
      <trkpt lat="43.46748" lon="1.36048">
        <ele>168.368042</ele>
        <time>2008-11-01T17:15:49Z</time>
      </trkpt>
      <trkpt lat="43.4678" lon="1.36044">
        <ele>168.368042</ele>
        <time>2008-11-01T17:15:56Z</time>
      </trkpt>
      <trkpt lat="43.46819" lon="1.36049">
        <ele>169.810059</ele>
        <time>2008-11-01T17:16:07Z</time>
      </trkpt>
      <trkpt lat="43.46838" lon="1.35997">
        <ele>170.290649</ele>
        <time>2008-11-01T17:16:20Z</time>
      </trkpt>
      <trkpt lat="43.46855" lon="1.35939">
        <ele>169.329468</ele>
        <time>2008-11-01T17:16:35Z</time>
      </trkpt>
      <trkpt lat="43.46883" lon="1.3585">
        <ele>169.810059</ele>
        <time>2008-11-01T17:16:57Z</time>
      </trkpt>
      <trkpt lat="43.46917" lon="1.35843">
        <ele>169.329468</ele>
        <time>2008-11-01T17:17:10Z</time>
      </trkpt>
      <trkpt lat="43.46974" lon="1.35814">
        <ele>169.329468</ele>
        <time>2008-11-01T17:17:31Z</time>
      </trkpt>
      <trkpt lat="43.46994" lon="1.35778">
        <ele>168.848755</ele>
        <time>2008-11-01T17:17:41Z</time>
      </trkpt>
    </trkseg>
  </trk>
</gpx>